<?xml version="1.0" encoding="UTF-8" standalone="no" ?>
<gpx xmlns="http://www.topografix.com/GPX/1/1" xmlns:xsi="http://www.w3.org/2001/XMLSchema-instance" xsi:schemaLocation="http://www.topografix.com/GPX/1/1 http://www.topografix.com/GPX/1/1/gpx.xsd" version="1.1" creator="VisuGPX - https://www.visugpx.com">
  <metadata>
    <name>Bastille 'n bike</name>
    <desc><![CDATA[Montée a la bastille et retour velo]]></desc>
  </metadata>
  <trk>
    <name><![CDATA[Bastille 'n bike_1]]></name>
    <extensions>
      <line xmlns="http://www.topografix.com/GPX/gpx_style/0/2">
        <color>0000FF</color>
        <width>4</width>
      </line>
    </extensions>
    <trkseg>
      <trkpt lat="45.19774" lon="5.73178">
        <ele>232.039</ele>
        <time>2021-08-01T12:06:23Z</time>
      </trkpt>
      <trkpt lat="45.19775" lon="5.73181">
        <ele>233.093</ele>
        <time>2021-08-01T12:06:28Z</time>
      </trkpt>
      <trkpt lat="45.19778" lon="5.73177">
        <ele>235.825</ele>
        <time>2021-08-01T12:06:33Z</time>
      </trkpt>
      <trkpt lat="45.19779" lon="5.73167">
        <ele>234.183</ele>
        <time>2021-08-01T12:06:38Z</time>
      </trkpt>
      <trkpt lat="45.19781" lon="5.73159">
        <ele>231.375</ele>
        <time>2021-08-01T12:06:43Z</time>
      </trkpt>
      <trkpt lat="45.19785" lon="5.73152">
        <ele>231.486</ele>
        <time>2021-08-01T12:06:48Z</time>
      </trkpt>
      <trkpt lat="45.19787" lon="5.73145">
        <ele>234.026</ele>
        <time>2021-08-01T12:06:53Z</time>
      </trkpt>
      <trkpt lat="45.1979" lon="5.73137">
        <ele>234.546</ele>
        <time>2021-08-01T12:06:58Z</time>
      </trkpt>
      <trkpt lat="45.19793" lon="5.73133">
        <ele>232.755</ele>
        <time>2021-08-01T12:07:02Z</time>
      </trkpt>
      <trkpt lat="45.19797" lon="5.7313">
        <ele>230.639</ele>
        <time>2021-08-01T12:07:06Z</time>
      </trkpt>
      <trkpt lat="45.19805" lon="5.73128">
        <ele>226.261</ele>
        <time>2021-08-01T12:07:14Z</time>
      </trkpt>
      <trkpt lat="45.19787" lon="5.73119">
        <ele>224.288</ele>
        <time>2021-08-01T12:07:28Z</time>
      </trkpt>
      <trkpt lat="45.1976" lon="5.73092">
        <ele>228.886</ele>
        <time>2021-08-01T12:07:55Z</time>
      </trkpt>
      <trkpt lat="45.19803" lon="5.73098">
        <ele>231.162</ele>
        <time>2021-08-01T12:08:36Z</time>
      </trkpt>
      <trkpt lat="45.19759" lon="5.73054">
        <ele>240.484</ele>
        <time>2021-08-01T12:09:47Z</time>
      </trkpt>
      <trkpt lat="45.19792" lon="5.73035">
        <ele>255.472</ele>
        <time>2021-08-01T12:11:49Z</time>
      </trkpt>
      <trkpt lat="45.19795" lon="5.73039">
        <ele>258.165</ele>
        <time>2021-08-01T12:11:54Z</time>
      </trkpt>
      <trkpt lat="45.198" lon="5.73041">
        <ele>257.817</ele>
        <time>2021-08-01T12:11:59Z</time>
      </trkpt>
      <trkpt lat="45.19804" lon="5.73043">
        <ele>259.834</ele>
        <time>2021-08-01T12:12:04Z</time>
      </trkpt>
      <trkpt lat="45.19807" lon="5.73041">
        <ele>261.594</ele>
        <time>2021-08-01T12:12:09Z</time>
      </trkpt>
      <trkpt lat="45.19804" lon="5.73036">
        <ele>261.093</ele>
        <time>2021-08-01T12:12:14Z</time>
      </trkpt>
      <trkpt lat="45.198" lon="5.73034">
        <ele>262.588</ele>
        <time>2021-08-01T12:12:19Z</time>
      </trkpt>
      <trkpt lat="45.19795" lon="5.7303">
        <ele>263.646</ele>
        <time>2021-08-01T12:12:24Z</time>
      </trkpt>
      <trkpt lat="45.1979" lon="5.73026">
        <ele>263.301</ele>
        <time>2021-08-01T12:12:29Z</time>
      </trkpt>
      <trkpt lat="45.19784" lon="5.73023">
        <ele>263.439</ele>
        <time>2021-08-01T12:12:34Z</time>
      </trkpt>
      <trkpt lat="45.19778" lon="5.73019">
        <ele>262.912</ele>
        <time>2021-08-01T12:12:39Z</time>
      </trkpt>
      <trkpt lat="45.19772" lon="5.73016">
        <ele>262.755</ele>
        <time>2021-08-01T12:12:44Z</time>
      </trkpt>
      <trkpt lat="45.19766" lon="5.73013">
        <ele>263.175</ele>
        <time>2021-08-01T12:12:49Z</time>
      </trkpt>
      <trkpt lat="45.19769" lon="5.73007">
        <ele>264.766</ele>
        <time>2021-08-01T12:12:54Z</time>
      </trkpt>
      <trkpt lat="45.19775" lon="5.73008">
        <ele>264.946</ele>
        <time>2021-08-01T12:12:59Z</time>
      </trkpt>
      <trkpt lat="45.1978" lon="5.7301">
        <ele>265.264</ele>
        <time>2021-08-01T12:13:04Z</time>
      </trkpt>
      <trkpt lat="45.19786" lon="5.73012">
        <ele>265.508</ele>
        <time>2021-08-01T12:13:09Z</time>
      </trkpt>
      <trkpt lat="45.19792" lon="5.73014">
        <ele>264.38</ele>
        <time>2021-08-01T12:13:14Z</time>
      </trkpt>
      <trkpt lat="45.19798" lon="5.73016">
        <ele>263.931</ele>
        <time>2021-08-01T12:13:19Z</time>
      </trkpt>
      <trkpt lat="45.19803" lon="5.73019">
        <ele>265.885</ele>
        <time>2021-08-01T12:13:24Z</time>
      </trkpt>
      <trkpt lat="45.19805" lon="5.73021">
        <ele>266.773</ele>
        <time>2021-08-01T12:13:29Z</time>
      </trkpt>
      <trkpt lat="45.19807" lon="5.73022">
        <ele>267.187</ele>
        <time>2021-08-01T12:13:34Z</time>
      </trkpt>
      <trkpt lat="45.1981" lon="5.73019">
        <ele>267.533</ele>
        <time>2021-08-01T12:13:39Z</time>
      </trkpt>
      <trkpt lat="45.19807" lon="5.73014">
        <ele>266.965</ele>
        <time>2021-08-01T12:13:44Z</time>
      </trkpt>
      <trkpt lat="45.19803" lon="5.73011">
        <ele>266.511</ele>
        <time>2021-08-01T12:13:49Z</time>
      </trkpt>
      <trkpt lat="45.19798" lon="5.73008">
        <ele>267</ele>
        <time>2021-08-01T12:13:54Z</time>
      </trkpt>
      <trkpt lat="45.19794" lon="5.73006">
        <ele>267.751</ele>
        <time>2021-08-01T12:13:59Z</time>
      </trkpt>
      <trkpt lat="45.19788" lon="5.73003">
        <ele>269.189</ele>
        <time>2021-08-01T12:14:04Z</time>
      </trkpt>
      <trkpt lat="45.19782" lon="5.73">
        <ele>269.543</ele>
        <time>2021-08-01T12:14:09Z</time>
      </trkpt>
      <trkpt lat="45.19778" lon="5.72996">
        <ele>271.028</ele>
        <time>2021-08-01T12:14:14Z</time>
      </trkpt>
      <trkpt lat="45.19773" lon="5.72991">
        <ele>271.914</ele>
        <time>2021-08-01T12:14:19Z</time>
      </trkpt>
      <trkpt lat="45.19771" lon="5.72988">
        <ele>272.899</ele>
        <time>2021-08-01T12:14:24Z</time>
      </trkpt>
      <trkpt lat="45.19767" lon="5.72983">
        <ele>273.293</ele>
        <time>2021-08-01T12:14:29Z</time>
      </trkpt>
      <trkpt lat="45.19762" lon="5.72977">
        <ele>274.842</ele>
        <time>2021-08-01T12:14:34Z</time>
      </trkpt>
      <trkpt lat="45.19758" lon="5.72972">
        <ele>275.304</ele>
        <time>2021-08-01T12:14:39Z</time>
      </trkpt>
      <trkpt lat="45.19755" lon="5.72967">
        <ele>275.955</ele>
        <time>2021-08-01T12:14:44Z</time>
      </trkpt>
      <trkpt lat="45.19751" lon="5.72961">
        <ele>276.981</ele>
        <time>2021-08-01T12:14:49Z</time>
      </trkpt>
      <trkpt lat="45.19748" lon="5.72955">
        <ele>277.72</ele>
        <time>2021-08-01T12:14:54Z</time>
      </trkpt>
      <trkpt lat="45.19744" lon="5.72948">
        <ele>278.212</ele>
        <time>2021-08-01T12:14:59Z</time>
      </trkpt>
      <trkpt lat="45.19742" lon="5.72942">
        <ele>277.969</ele>
        <time>2021-08-01T12:15:04Z</time>
      </trkpt>
      <trkpt lat="45.19738" lon="5.72935">
        <ele>278.519</ele>
        <time>2021-08-01T12:15:09Z</time>
      </trkpt>
      <trkpt lat="45.19734" lon="5.7293">
        <ele>279.16</ele>
        <time>2021-08-01T12:15:14Z</time>
      </trkpt>
      <trkpt lat="45.1973" lon="5.72924">
        <ele>280.025</ele>
        <time>2021-08-01T12:15:19Z</time>
      </trkpt>
      <trkpt lat="45.19728" lon="5.72918">
        <ele>280.297</ele>
        <time>2021-08-01T12:15:24Z</time>
      </trkpt>
      <trkpt lat="45.19726" lon="5.72911">
        <ele>279.744</ele>
        <time>2021-08-01T12:15:29Z</time>
      </trkpt>
      <trkpt lat="45.19722" lon="5.72906">
        <ele>283.983</ele>
        <time>2021-08-01T12:15:34Z</time>
      </trkpt>
      <trkpt lat="45.19718" lon="5.72901">
        <ele>283.602</ele>
        <time>2021-08-01T12:15:39Z</time>
      </trkpt>
      <trkpt lat="45.19715" lon="5.72895">
        <ele>283.464</ele>
        <time>2021-08-01T12:15:44Z</time>
      </trkpt>
      <trkpt lat="45.19711" lon="5.72889">
        <ele>283.392</ele>
        <time>2021-08-01T12:15:49Z</time>
      </trkpt>
      <trkpt lat="45.19708" lon="5.72883">
        <ele>283.908</ele>
        <time>2021-08-01T12:15:54Z</time>
      </trkpt>
      <trkpt lat="45.19704" lon="5.72876">
        <ele>284.542</ele>
        <time>2021-08-01T12:15:59Z</time>
      </trkpt>
      <trkpt lat="45.19701" lon="5.72871">
        <ele>284.303</ele>
        <time>2021-08-01T12:16:04Z</time>
      </trkpt>
      <trkpt lat="45.19698" lon="5.72864">
        <ele>284.197</ele>
        <time>2021-08-01T12:16:09Z</time>
      </trkpt>
      <trkpt lat="45.19695" lon="5.72859">
        <ele>285.013</ele>
        <time>2021-08-01T12:16:14Z</time>
      </trkpt>
      <trkpt lat="45.19692" lon="5.72854">
        <ele>285.621</ele>
        <time>2021-08-01T12:16:19Z</time>
      </trkpt>
      <trkpt lat="45.19691" lon="5.72848">
        <ele>286.648</ele>
        <time>2021-08-01T12:16:24Z</time>
      </trkpt>
      <trkpt lat="45.19688" lon="5.72842">
        <ele>287.494</ele>
        <time>2021-08-01T12:16:29Z</time>
      </trkpt>
      <trkpt lat="45.19684" lon="5.72837">
        <ele>288.39</ele>
        <time>2021-08-01T12:16:34Z</time>
      </trkpt>
      <trkpt lat="45.19681" lon="5.72832">
        <ele>288.057</ele>
        <time>2021-08-01T12:16:39Z</time>
      </trkpt>
      <trkpt lat="45.19678" lon="5.72824">
        <ele>287.496</ele>
        <time>2021-08-01T12:16:44Z</time>
      </trkpt>
      <trkpt lat="45.19674" lon="5.72817">
        <ele>289.525</ele>
        <time>2021-08-01T12:16:49Z</time>
      </trkpt>
      <trkpt lat="45.1967" lon="5.72811">
        <ele>288.539</ele>
        <time>2021-08-01T12:16:54Z</time>
      </trkpt>
      <trkpt lat="45.19667" lon="5.72806">
        <ele>286.707</ele>
        <time>2021-08-01T12:16:59Z</time>
      </trkpt>
      <trkpt lat="45.19666" lon="5.72801">
        <ele>284.509</ele>
        <time>2021-08-01T12:17:04Z</time>
      </trkpt>
      <trkpt lat="45.19665" lon="5.728">
        <ele>282.338</ele>
        <time>2021-08-01T12:17:09Z</time>
      </trkpt>
      <trkpt lat="45.19665" lon="5.72799">
        <ele>285.117</ele>
        <time>2021-08-01T12:17:14Z</time>
      </trkpt>
      <trkpt lat="45.19667" lon="5.72805">
        <ele>287.059</ele>
        <time>2021-08-01T12:17:19Z</time>
      </trkpt>
      <trkpt lat="45.1967" lon="5.7281">
        <ele>287.054</ele>
        <time>2021-08-01T12:17:24Z</time>
      </trkpt>
      <trkpt lat="45.19673" lon="5.72815">
        <ele>286.828</ele>
        <time>2021-08-01T12:17:29Z</time>
      </trkpt>
      <trkpt lat="45.19676" lon="5.72822">
        <ele>285.893</ele>
        <time>2021-08-01T12:17:34Z</time>
      </trkpt>
      <trkpt lat="45.19681" lon="5.72827">
        <ele>286.232</ele>
        <time>2021-08-01T12:17:39Z</time>
      </trkpt>
      <trkpt lat="45.19685" lon="5.72834">
        <ele>287.11</ele>
        <time>2021-08-01T12:17:44Z</time>
      </trkpt>
      <trkpt lat="45.19689" lon="5.72842">
        <ele>286.506</ele>
        <time>2021-08-01T12:17:49Z</time>
      </trkpt>
      <trkpt lat="45.19694" lon="5.72848">
        <ele>287.326</ele>
        <time>2021-08-01T12:17:54Z</time>
      </trkpt>
      <trkpt lat="45.19698" lon="5.72852">
        <ele>286.84</ele>
        <time>2021-08-01T12:17:59Z</time>
      </trkpt>
      <trkpt lat="45.19703" lon="5.72856">
        <ele>286.68</ele>
        <time>2021-08-01T12:18:04Z</time>
      </trkpt>
      <trkpt lat="45.19707" lon="5.72862">
        <ele>287.664</ele>
        <time>2021-08-01T12:18:09Z</time>
      </trkpt>
      <trkpt lat="45.19713" lon="5.72865">
        <ele>288.14</ele>
        <time>2021-08-01T12:18:14Z</time>
      </trkpt>
      <trkpt lat="45.19718" lon="5.72868">
        <ele>289.726</ele>
        <time>2021-08-01T12:18:19Z</time>
      </trkpt>
      <trkpt lat="45.19723" lon="5.72873">
        <ele>291.434</ele>
        <time>2021-08-01T12:18:24Z</time>
      </trkpt>
      <trkpt lat="45.19728" lon="5.72878">
        <ele>293.44</ele>
        <time>2021-08-01T12:18:29Z</time>
      </trkpt>
      <trkpt lat="45.19734" lon="5.7288">
        <ele>293.812</ele>
        <time>2021-08-01T12:18:34Z</time>
      </trkpt>
      <trkpt lat="45.19738" lon="5.72883">
        <ele>294.788</ele>
        <time>2021-08-01T12:18:39Z</time>
      </trkpt>
      <trkpt lat="45.19743" lon="5.72887">
        <ele>295.372</ele>
        <time>2021-08-01T12:18:44Z</time>
      </trkpt>
      <trkpt lat="45.19747" lon="5.7289">
        <ele>296.817</ele>
        <time>2021-08-01T12:18:49Z</time>
      </trkpt>
      <trkpt lat="45.19751" lon="5.72892">
        <ele>298.496</ele>
        <time>2021-08-01T12:18:54Z</time>
      </trkpt>
      <trkpt lat="45.19756" lon="5.72894">
        <ele>298.576</ele>
        <time>2021-08-01T12:18:59Z</time>
      </trkpt>
      <trkpt lat="45.1976" lon="5.72897">
        <ele>297.874</ele>
        <time>2021-08-01T12:19:04Z</time>
      </trkpt>
      <trkpt lat="45.19765" lon="5.729">
        <ele>297.224</ele>
        <time>2021-08-01T12:19:09Z</time>
      </trkpt>
      <trkpt lat="45.19772" lon="5.72904">
        <ele>296.776</ele>
        <time>2021-08-01T12:19:15Z</time>
      </trkpt>
      <trkpt lat="45.19778" lon="5.72908">
        <ele>299.975</ele>
        <time>2021-08-01T12:19:21Z</time>
      </trkpt>
      <trkpt lat="45.19782" lon="5.7291">
        <ele>300.193</ele>
        <time>2021-08-01T12:19:25Z</time>
      </trkpt>
      <trkpt lat="45.19786" lon="5.72911">
        <ele>301.023</ele>
        <time>2021-08-01T12:19:28Z</time>
      </trkpt>
      <trkpt lat="45.19791" lon="5.72916">
        <ele>302.279</ele>
        <time>2021-08-01T12:19:35Z</time>
      </trkpt>
      <trkpt lat="45.19805" lon="5.72923">
        <ele>304.576</ele>
        <time>2021-08-01T12:19:50Z</time>
      </trkpt>
      <trkpt lat="45.19789" lon="5.72908">
        <ele>305.068</ele>
        <time>2021-08-01T12:20:05Z</time>
      </trkpt>
      <trkpt lat="45.19776" lon="5.72892">
        <ele>307.514</ele>
        <time>2021-08-01T12:20:20Z</time>
      </trkpt>
      <trkpt lat="45.19765" lon="5.72875">
        <ele>307.09</ele>
        <time>2021-08-01T12:20:35Z</time>
      </trkpt>
      <trkpt lat="45.19764" lon="5.72874">
        <ele>307.223</ele>
        <time>2021-08-01T12:20:36Z</time>
      </trkpt>
      <trkpt lat="45.19753" lon="5.72856">
        <ele>307.956</ele>
        <time>2021-08-01T12:20:51Z</time>
      </trkpt>
      <trkpt lat="45.19752" lon="5.72855">
        <ele>307.48</ele>
        <time>2021-08-01T12:20:52Z</time>
      </trkpt>
      <trkpt lat="45.19744" lon="5.72839">
        <ele>310.429</ele>
        <time>2021-08-01T12:21:07Z</time>
      </trkpt>
      <trkpt lat="45.19746" lon="5.72838">
        <ele>310.662</ele>
        <time>2021-08-01T12:21:09Z</time>
      </trkpt>
      <trkpt lat="45.1976" lon="5.72849">
        <ele>314.072</ele>
        <time>2021-08-01T12:21:23Z</time>
      </trkpt>
      <trkpt lat="45.19761" lon="5.72851">
        <ele>314.874</ele>
        <time>2021-08-01T12:21:25Z</time>
      </trkpt>
      <trkpt lat="45.19775" lon="5.72859">
        <ele>316.258</ele>
        <time>2021-08-01T12:21:39Z</time>
      </trkpt>
      <trkpt lat="45.19776" lon="5.7286">
        <ele>315.802</ele>
        <time>2021-08-01T12:21:42Z</time>
      </trkpt>
      <trkpt lat="45.19789" lon="5.72871">
        <ele>320.352</ele>
        <time>2021-08-01T12:21:56Z</time>
      </trkpt>
      <trkpt lat="45.19792" lon="5.72873">
        <ele>319.713</ele>
        <time>2021-08-01T12:21:59Z</time>
      </trkpt>
      <trkpt lat="45.19807" lon="5.72881">
        <ele>320.613</ele>
        <time>2021-08-01T12:22:12Z</time>
      </trkpt>
      <trkpt lat="45.19811" lon="5.72881">
        <ele>320.27</ele>
        <time>2021-08-01T12:22:16Z</time>
      </trkpt>
      <trkpt lat="45.19805" lon="5.72871">
        <ele>322.132</ele>
        <time>2021-08-01T12:22:29Z</time>
      </trkpt>
      <trkpt lat="45.19801" lon="5.72867">
        <ele>322.866</ele>
        <time>2021-08-01T12:22:33Z</time>
      </trkpt>
      <trkpt lat="45.19792" lon="5.72855">
        <ele>323.631</ele>
        <time>2021-08-01T12:22:46Z</time>
      </trkpt>
      <trkpt lat="45.19788" lon="5.72851">
        <ele>323.267</ele>
        <time>2021-08-01T12:22:50Z</time>
      </trkpt>
      <trkpt lat="45.19778" lon="5.72839">
        <ele>324.813</ele>
        <time>2021-08-01T12:23:03Z</time>
      </trkpt>
      <trkpt lat="45.19774" lon="5.72836">
        <ele>325.425</ele>
        <time>2021-08-01T12:23:07Z</time>
      </trkpt>
      <trkpt lat="45.19764" lon="5.72821">
        <ele>325.829</ele>
        <time>2021-08-01T12:23:21Z</time>
      </trkpt>
      <trkpt lat="45.19761" lon="5.72817">
        <ele>326.251</ele>
        <time>2021-08-01T12:23:25Z</time>
      </trkpt>
      <trkpt lat="45.19758" lon="5.72806">
        <ele>327.035</ele>
        <time>2021-08-01T12:23:39Z</time>
      </trkpt>
      <trkpt lat="45.19761" lon="5.72808">
        <ele>328.481</ele>
        <time>2021-08-01T12:23:44Z</time>
      </trkpt>
      <trkpt lat="45.19766" lon="5.72812">
        <ele>330.478</ele>
        <time>2021-08-01T12:23:49Z</time>
      </trkpt>
      <trkpt lat="45.19783" lon="5.72822">
        <ele>334.292</ele>
        <time>2021-08-01T12:24:08Z</time>
      </trkpt>
      <trkpt lat="45.19788" lon="5.72827">
        <ele>336.319</ele>
        <time>2021-08-01T12:24:13Z</time>
      </trkpt>
      <trkpt lat="45.19794" lon="5.72829">
        <ele>337.024</ele>
        <time>2021-08-01T12:24:18Z</time>
      </trkpt>
      <trkpt lat="45.19798" lon="5.72834">
        <ele>338.172</ele>
        <time>2021-08-01T12:24:23Z</time>
      </trkpt>
      <trkpt lat="45.19802" lon="5.72837">
        <ele>338.527</ele>
        <time>2021-08-01T12:24:28Z</time>
      </trkpt>
      <trkpt lat="45.19808" lon="5.7284">
        <ele>339.361</ele>
        <time>2021-08-01T12:24:33Z</time>
      </trkpt>
      <trkpt lat="45.19813" lon="5.72841">
        <ele>338.98</ele>
        <time>2021-08-01T12:24:38Z</time>
      </trkpt>
      <trkpt lat="45.19818" lon="5.72845">
        <ele>339.868</ele>
        <time>2021-08-01T12:24:43Z</time>
      </trkpt>
      <trkpt lat="45.19823" lon="5.72847">
        <ele>341.352</ele>
        <time>2021-08-01T12:24:48Z</time>
      </trkpt>
      <trkpt lat="45.19825" lon="5.72845">
        <ele>340.869</ele>
        <time>2021-08-01T12:24:53Z</time>
      </trkpt>
      <trkpt lat="45.19829" lon="5.72847">
        <ele>342.126</ele>
        <time>2021-08-01T12:24:58Z</time>
      </trkpt>
      <trkpt lat="45.19833" lon="5.72853">
        <ele>342.299</ele>
        <time>2021-08-01T12:25:03Z</time>
      </trkpt>
      <trkpt lat="45.19832" lon="5.72862">
        <ele>341.403</ele>
        <time>2021-08-01T12:25:08Z</time>
      </trkpt>
      <trkpt lat="45.19831" lon="5.72865">
        <ele>341.459</ele>
        <time>2021-08-01T12:25:13Z</time>
      </trkpt>
      <trkpt lat="45.19833" lon="5.72858">
        <ele>339.022</ele>
        <time>2021-08-01T12:25:18Z</time>
      </trkpt>
      <trkpt lat="45.19832" lon="5.72849">
        <ele>337.499</ele>
        <time>2021-08-01T12:25:23Z</time>
      </trkpt>
      <trkpt lat="45.19827" lon="5.72844">
        <ele>335.745</ele>
        <time>2021-08-01T12:25:28Z</time>
      </trkpt>
      <trkpt lat="45.19822" lon="5.72838">
        <ele>337.054</ele>
        <time>2021-08-01T12:25:33Z</time>
      </trkpt>
      <trkpt lat="45.19817" lon="5.72834">
        <ele>339.186</ele>
        <time>2021-08-01T12:25:38Z</time>
      </trkpt>
      <trkpt lat="45.19811" lon="5.72831">
        <ele>338.587</ele>
        <time>2021-08-01T12:25:43Z</time>
      </trkpt>
      <trkpt lat="45.19806" lon="5.72825">
        <ele>339.442</ele>
        <time>2021-08-01T12:25:48Z</time>
      </trkpt>
      <trkpt lat="45.19801" lon="5.7282">
        <ele>339.987</ele>
        <time>2021-08-01T12:25:53Z</time>
      </trkpt>
      <trkpt lat="45.19796" lon="5.72815">
        <ele>340.961</ele>
        <time>2021-08-01T12:25:58Z</time>
      </trkpt>
      <trkpt lat="45.19793" lon="5.72809">
        <ele>341.356</ele>
        <time>2021-08-01T12:26:03Z</time>
      </trkpt>
      <trkpt lat="45.19798" lon="5.72811">
        <ele>342.566</ele>
        <time>2021-08-01T12:26:08Z</time>
      </trkpt>
      <trkpt lat="45.19802" lon="5.72816">
        <ele>343.096</ele>
        <time>2021-08-01T12:26:13Z</time>
      </trkpt>
      <trkpt lat="45.19807" lon="5.7282">
        <ele>343.787</ele>
        <time>2021-08-01T12:26:18Z</time>
      </trkpt>
      <trkpt lat="45.19813" lon="5.72825">
        <ele>346.244</ele>
        <time>2021-08-01T12:26:23Z</time>
      </trkpt>
      <trkpt lat="45.19817" lon="5.72828">
        <ele>347.121</ele>
        <time>2021-08-01T12:26:28Z</time>
      </trkpt>
      <trkpt lat="45.19822" lon="5.72832">
        <ele>347.242</ele>
        <time>2021-08-01T12:26:33Z</time>
      </trkpt>
      <trkpt lat="45.19827" lon="5.72834">
        <ele>347.996</ele>
        <time>2021-08-01T12:26:38Z</time>
      </trkpt>
      <trkpt lat="45.19833" lon="5.72834">
        <ele>349.74</ele>
        <time>2021-08-01T12:26:43Z</time>
      </trkpt>
      <trkpt lat="45.19838" lon="5.72834">
        <ele>349.67</ele>
        <time>2021-08-01T12:26:48Z</time>
      </trkpt>
      <trkpt lat="45.19836" lon="5.72829">
        <ele>348.164</ele>
        <time>2021-08-01T12:26:53Z</time>
      </trkpt>
      <trkpt lat="45.19831" lon="5.72825">
        <ele>348.052</ele>
        <time>2021-08-01T12:26:58Z</time>
      </trkpt>
      <trkpt lat="45.19826" lon="5.72823">
        <ele>348.516</ele>
        <time>2021-08-01T12:27:03Z</time>
      </trkpt>
      <trkpt lat="45.19822" lon="5.72819">
        <ele>348.512</ele>
        <time>2021-08-01T12:27:07Z</time>
      </trkpt>
      <trkpt lat="45.19819" lon="5.72817">
        <ele>349.975</ele>
        <time>2021-08-01T12:27:10Z</time>
      </trkpt>
      <trkpt lat="45.19822" lon="5.72815">
        <ele>352.079</ele>
        <time>2021-08-01T12:27:18Z</time>
      </trkpt>
      <trkpt lat="45.19831" lon="5.72821">
        <ele>354.518</ele>
        <time>2021-08-01T12:27:27Z</time>
      </trkpt>
      <trkpt lat="45.19836" lon="5.72825">
        <ele>355.72</ele>
        <time>2021-08-01T12:27:32Z</time>
      </trkpt>
      <trkpt lat="45.19841" lon="5.7283">
        <ele>356.15</ele>
        <time>2021-08-01T12:27:37Z</time>
      </trkpt>
      <trkpt lat="45.19844" lon="5.72832">
        <ele>357.048</ele>
        <time>2021-08-01T12:27:42Z</time>
      </trkpt>
      <trkpt lat="45.19848" lon="5.72829">
        <ele>357.025</ele>
        <time>2021-08-01T12:27:47Z</time>
      </trkpt>
      <trkpt lat="45.19843" lon="5.72823">
        <ele>357.437</ele>
        <time>2021-08-01T12:27:52Z</time>
      </trkpt>
      <trkpt lat="45.19839" lon="5.72819">
        <ele>356.728</ele>
        <time>2021-08-01T12:27:57Z</time>
      </trkpt>
      <trkpt lat="45.19834" lon="5.72815">
        <ele>357.122</ele>
        <time>2021-08-01T12:28:02Z</time>
      </trkpt>
      <trkpt lat="45.1983" lon="5.72811">
        <ele>358.273</ele>
        <time>2021-08-01T12:28:07Z</time>
      </trkpt>
      <trkpt lat="45.19826" lon="5.72807">
        <ele>358.135</ele>
        <time>2021-08-01T12:28:12Z</time>
      </trkpt>
      <trkpt lat="45.19823" lon="5.72804">
        <ele>358.189</ele>
        <time>2021-08-01T12:28:16Z</time>
      </trkpt>
      <trkpt lat="45.1982" lon="5.72802">
        <ele>358.429</ele>
        <time>2021-08-01T12:28:19Z</time>
      </trkpt>
      <trkpt lat="45.19814" lon="5.72794">
        <ele>359.419</ele>
        <time>2021-08-01T12:28:28Z</time>
      </trkpt>
      <trkpt lat="45.19801" lon="5.72783">
        <ele>361.103</ele>
        <time>2021-08-01T12:28:42Z</time>
      </trkpt>
      <trkpt lat="45.19818" lon="5.72787">
        <ele>364.713</ele>
        <time>2021-08-01T12:29:09Z</time>
      </trkpt>
      <trkpt lat="45.19829" lon="5.72782">
        <ele>370.439</ele>
        <time>2021-08-01T12:30:01Z</time>
      </trkpt>
      <trkpt lat="45.19814" lon="5.72766">
        <ele>373.607</ele>
        <time>2021-08-01T12:30:20Z</time>
      </trkpt>
      <trkpt lat="45.1979" lon="5.72734">
        <ele>378.443</ele>
        <time>2021-08-01T12:30:53Z</time>
      </trkpt>
      <trkpt lat="45.1979" lon="5.72733">
        <ele>378.249</ele>
        <time>2021-08-01T12:30:54Z</time>
      </trkpt>
      <trkpt lat="45.19798" lon="5.72737">
        <ele>382.64</ele>
        <time>2021-08-01T12:31:59Z</time>
      </trkpt>
      <trkpt lat="45.19802" lon="5.7274">
        <ele>382.521</ele>
        <time>2021-08-01T12:32:04Z</time>
      </trkpt>
      <trkpt lat="45.19808" lon="5.72746">
        <ele>384.598</ele>
        <time>2021-08-01T12:32:09Z</time>
      </trkpt>
      <trkpt lat="45.19813" lon="5.72751">
        <ele>385.279</ele>
        <time>2021-08-01T12:32:14Z</time>
      </trkpt>
      <trkpt lat="45.19819" lon="5.72756">
        <ele>384.882</ele>
        <time>2021-08-01T12:32:19Z</time>
      </trkpt>
      <trkpt lat="45.19825" lon="5.72761">
        <ele>386.025</ele>
        <time>2021-08-01T12:32:24Z</time>
      </trkpt>
      <trkpt lat="45.1983" lon="5.72765">
        <ele>386.336</ele>
        <time>2021-08-01T12:32:29Z</time>
      </trkpt>
      <trkpt lat="45.19835" lon="5.72769">
        <ele>386.629</ele>
        <time>2021-08-01T12:32:34Z</time>
      </trkpt>
      <trkpt lat="45.19841" lon="5.72773">
        <ele>386.883</ele>
        <time>2021-08-01T12:32:39Z</time>
      </trkpt>
      <trkpt lat="45.19846" lon="5.72775">
        <ele>387.193</ele>
        <time>2021-08-01T12:32:44Z</time>
      </trkpt>
      <trkpt lat="45.19851" lon="5.72779">
        <ele>387.169</ele>
        <time>2021-08-01T12:32:49Z</time>
      </trkpt>
      <trkpt lat="45.19855" lon="5.72781">
        <ele>386.631</ele>
        <time>2021-08-01T12:32:54Z</time>
      </trkpt>
      <trkpt lat="45.19853" lon="5.72774">
        <ele>387.187</ele>
        <time>2021-08-01T12:32:59Z</time>
      </trkpt>
      <trkpt lat="45.19849" lon="5.72768">
        <ele>386.91</ele>
        <time>2021-08-01T12:33:04Z</time>
      </trkpt>
      <trkpt lat="45.1985" lon="5.72765">
        <ele>387.505</ele>
        <time>2021-08-01T12:33:09Z</time>
      </trkpt>
      <trkpt lat="45.19853" lon="5.72767">
        <ele>387.384</ele>
        <time>2021-08-01T12:33:14Z</time>
      </trkpt>
      <trkpt lat="45.19855" lon="5.7277">
        <ele>390.528</ele>
        <time>2021-08-01T12:33:19Z</time>
      </trkpt>
      <trkpt lat="45.19857" lon="5.72774">
        <ele>391.875</ele>
        <time>2021-08-01T12:33:24Z</time>
      </trkpt>
      <trkpt lat="45.19857" lon="5.72772">
        <ele>391.267</ele>
        <time>2021-08-01T12:33:29Z</time>
      </trkpt>
      <trkpt lat="45.19858" lon="5.72752">
        <ele>396.661</ele>
        <time>2021-08-01T12:34:13Z</time>
      </trkpt>
      <trkpt lat="45.1986" lon="5.72754">
        <ele>399.152</ele>
        <time>2021-08-01T12:34:15Z</time>
      </trkpt>
      <trkpt lat="45.19857" lon="5.72766">
        <ele>403.641</ele>
        <time>2021-08-01T12:34:20Z</time>
      </trkpt>
      <trkpt lat="45.19857" lon="5.72763">
        <ele>402.013</ele>
        <time>2021-08-01T12:34:25Z</time>
      </trkpt>
      <trkpt lat="45.19858" lon="5.72755">
        <ele>404.926</ele>
        <time>2021-08-01T12:34:30Z</time>
      </trkpt>
      <trkpt lat="45.19858" lon="5.72755">
        <ele>403.45</ele>
        <time>2021-08-01T12:34:35Z</time>
      </trkpt>
      <trkpt lat="45.19858" lon="5.72757">
        <ele>406.209</ele>
        <time>2021-08-01T12:34:40Z</time>
      </trkpt>
      <trkpt lat="45.19857" lon="5.7276">
        <ele>409.059</ele>
        <time>2021-08-01T12:34:45Z</time>
      </trkpt>
      <trkpt lat="45.19856" lon="5.72766">
        <ele>410.184</ele>
        <time>2021-08-01T12:34:50Z</time>
      </trkpt>
      <trkpt lat="45.19856" lon="5.72765">
        <ele>409.173</ele>
        <time>2021-08-01T12:34:55Z</time>
      </trkpt>
      <trkpt lat="45.19856" lon="5.72764">
        <ele>409.338</ele>
        <time>2021-08-01T12:35:00Z</time>
      </trkpt>
      <trkpt lat="45.19856" lon="5.72764">
        <ele>409.405</ele>
        <time>2021-08-01T12:35:05Z</time>
      </trkpt>
      <trkpt lat="45.19856" lon="5.72764">
        <ele>409.402</ele>
        <time>2021-08-01T12:35:10Z</time>
      </trkpt>
      <trkpt lat="45.19856" lon="5.72763">
        <ele>409.055</ele>
        <time>2021-08-01T12:35:15Z</time>
      </trkpt>
      <trkpt lat="45.19858" lon="5.7276">
        <ele>408.991</ele>
        <time>2021-08-01T12:35:20Z</time>
      </trkpt>
      <trkpt lat="45.19859" lon="5.72752">
        <ele>407.77</ele>
        <time>2021-08-01T12:35:25Z</time>
      </trkpt>
      <trkpt lat="45.19858" lon="5.72747">
        <ele>408.019</ele>
        <time>2021-08-01T12:35:30Z</time>
      </trkpt>
      <trkpt lat="45.19856" lon="5.7274">
        <ele>412.019</ele>
        <time>2021-08-01T12:35:35Z</time>
      </trkpt>
      <trkpt lat="45.19855" lon="5.72737">
        <ele>415.037</ele>
        <time>2021-08-01T12:35:40Z</time>
      </trkpt>
      <trkpt lat="45.19853" lon="5.72741">
        <ele>419.666</ele>
        <time>2021-08-01T12:35:55Z</time>
      </trkpt>
      <trkpt lat="45.19851" lon="5.72741">
        <ele>417.612</ele>
        <time>2021-08-01T12:35:56Z</time>
      </trkpt>
      <trkpt lat="45.19841" lon="5.72743">
        <ele>415.282</ele>
        <time>2021-08-01T12:36:01Z</time>
      </trkpt>
      <trkpt lat="45.19836" lon="5.72737">
        <ele>414.142</ele>
        <time>2021-08-01T12:36:06Z</time>
      </trkpt>
      <trkpt lat="45.19834" lon="5.72729">
        <ele>414.371</ele>
        <time>2021-08-01T12:36:11Z</time>
      </trkpt>
      <trkpt lat="45.19831" lon="5.72722">
        <ele>413.577</ele>
        <time>2021-08-01T12:36:16Z</time>
      </trkpt>
      <trkpt lat="45.19826" lon="5.72716">
        <ele>413.997</ele>
        <time>2021-08-01T12:36:21Z</time>
      </trkpt>
      <trkpt lat="45.19821" lon="5.72711">
        <ele>414.92</ele>
        <time>2021-08-01T12:36:26Z</time>
      </trkpt>
      <trkpt lat="45.19816" lon="5.72707">
        <ele>415.393</ele>
        <time>2021-08-01T12:36:31Z</time>
      </trkpt>
      <trkpt lat="45.19811" lon="5.72701">
        <ele>415.093</ele>
        <time>2021-08-01T12:36:36Z</time>
      </trkpt>
      <trkpt lat="45.19806" lon="5.72697">
        <ele>414.309</ele>
        <time>2021-08-01T12:36:41Z</time>
      </trkpt>
      <trkpt lat="45.198" lon="5.7269">
        <ele>413.751</ele>
        <time>2021-08-01T12:36:46Z</time>
      </trkpt>
      <trkpt lat="45.19795" lon="5.72684">
        <ele>413.354</ele>
        <time>2021-08-01T12:36:51Z</time>
      </trkpt>
      <trkpt lat="45.1979" lon="5.72678">
        <ele>412.808</ele>
        <time>2021-08-01T12:36:56Z</time>
      </trkpt>
      <trkpt lat="45.19785" lon="5.72671">
        <ele>412.448</ele>
        <time>2021-08-01T12:37:01Z</time>
      </trkpt>
      <trkpt lat="45.1978" lon="5.72666">
        <ele>412.044</ele>
        <time>2021-08-01T12:37:06Z</time>
      </trkpt>
      <trkpt lat="45.19775" lon="5.72659">
        <ele>412.32</ele>
        <time>2021-08-01T12:37:11Z</time>
      </trkpt>
      <trkpt lat="45.1977" lon="5.72654">
        <ele>412.31</ele>
        <time>2021-08-01T12:37:16Z</time>
      </trkpt>
      <trkpt lat="45.19765" lon="5.72648">
        <ele>412.65</ele>
        <time>2021-08-01T12:37:21Z</time>
      </trkpt>
      <trkpt lat="45.19762" lon="5.72641">
        <ele>413.3</ele>
        <time>2021-08-01T12:37:26Z</time>
      </trkpt>
      <trkpt lat="45.19759" lon="5.72634">
        <ele>415.68</ele>
        <time>2021-08-01T12:37:31Z</time>
      </trkpt>
      <trkpt lat="45.19758" lon="5.72625">
        <ele>415.51</ele>
        <time>2021-08-01T12:37:36Z</time>
      </trkpt>
      <trkpt lat="45.19755" lon="5.72616">
        <ele>415.895</ele>
        <time>2021-08-01T12:37:41Z</time>
      </trkpt>
      <trkpt lat="45.19753" lon="5.72608">
        <ele>414.912</ele>
        <time>2021-08-01T12:37:46Z</time>
      </trkpt>
      <trkpt lat="45.19749" lon="5.726">
        <ele>414.432</ele>
        <time>2021-08-01T12:37:51Z</time>
      </trkpt>
      <trkpt lat="45.19747" lon="5.72591">
        <ele>416.19</ele>
        <time>2021-08-01T12:37:56Z</time>
      </trkpt>
      <trkpt lat="45.19745" lon="5.72582">
        <ele>416.008</ele>
        <time>2021-08-01T12:38:01Z</time>
      </trkpt>
      <trkpt lat="45.19743" lon="5.72573">
        <ele>415.113</ele>
        <time>2021-08-01T12:38:06Z</time>
      </trkpt>
      <trkpt lat="45.19741" lon="5.72565">
        <ele>414.9</ele>
        <time>2021-08-01T12:38:11Z</time>
      </trkpt>
      <trkpt lat="45.19739" lon="5.72561">
        <ele>416.888</ele>
        <time>2021-08-01T12:38:16Z</time>
      </trkpt>
      <trkpt lat="45.19739" lon="5.7256">
        <ele>419.117</ele>
        <time>2021-08-01T12:38:21Z</time>
      </trkpt>
      <trkpt lat="45.19741" lon="5.72552">
        <ele>419.199</ele>
        <time>2021-08-01T12:38:26Z</time>
      </trkpt>
      <trkpt lat="45.19742" lon="5.72545">
        <ele>417.78</ele>
        <time>2021-08-01T12:38:31Z</time>
      </trkpt>
      <trkpt lat="45.19742" lon="5.72536">
        <ele>416.507</ele>
        <time>2021-08-01T12:38:36Z</time>
      </trkpt>
      <trkpt lat="45.19737" lon="5.72531">
        <ele>416.117</ele>
        <time>2021-08-01T12:38:41Z</time>
      </trkpt>
      <trkpt lat="45.19732" lon="5.72528">
        <ele>415.291</ele>
        <time>2021-08-01T12:38:46Z</time>
      </trkpt>
      <trkpt lat="45.19729" lon="5.72525">
        <ele>415.154</ele>
        <time>2021-08-01T12:38:51Z</time>
      </trkpt>
      <trkpt lat="45.19729" lon="5.72526">
        <ele>415.855</ele>
        <time>2021-08-01T12:38:56Z</time>
      </trkpt>
      <trkpt lat="45.19729" lon="5.72526">
        <ele>416.219</ele>
        <time>2021-08-01T12:39:01Z</time>
      </trkpt>
      <trkpt lat="45.19729" lon="5.72526">
        <ele>416.2</ele>
        <time>2021-08-01T12:39:06Z</time>
      </trkpt>
      <trkpt lat="45.19729" lon="5.72525">
        <ele>417.051</ele>
        <time>2021-08-01T12:39:11Z</time>
      </trkpt>
      <trkpt lat="45.1973" lon="5.72521">
        <ele>417.197</ele>
        <time>2021-08-01T12:39:15Z</time>
      </trkpt>
      <trkpt lat="45.1973" lon="5.72521">
        <ele>416.439</ele>
        <time>2021-08-01T12:39:21Z</time>
      </trkpt>
      <trkpt lat="45.19731" lon="5.72522">
        <ele>415.674</ele>
        <time>2021-08-01T12:39:26Z</time>
      </trkpt>
      <trkpt lat="45.19731" lon="5.72522">
        <ele>415.384</ele>
        <time>2021-08-01T12:39:31Z</time>
      </trkpt>
      <trkpt lat="45.1973" lon="5.72522">
        <ele>415.586</ele>
        <time>2021-08-01T12:39:36Z</time>
      </trkpt>
      <trkpt lat="45.1973" lon="5.72522">
        <ele>415.627</ele>
        <time>2021-08-01T12:39:41Z</time>
      </trkpt>
      <trkpt lat="45.1973" lon="5.72522">
        <ele>415.638</ele>
        <time>2021-08-01T12:39:46Z</time>
      </trkpt>
      <trkpt lat="45.1973" lon="5.72522">
        <ele>415.643</ele>
        <time>2021-08-01T12:39:51Z</time>
      </trkpt>
      <trkpt lat="45.1973" lon="5.72523">
        <ele>415.641</ele>
        <time>2021-08-01T12:39:56Z</time>
      </trkpt>
      <trkpt lat="45.1973" lon="5.72522">
        <ele>415.954</ele>
        <time>2021-08-01T12:40:01Z</time>
      </trkpt>
      <trkpt lat="45.1973" lon="5.72522">
        <ele>416.581</ele>
        <time>2021-08-01T12:40:06Z</time>
      </trkpt>
      <trkpt lat="45.19731" lon="5.7252">
        <ele>416.428</ele>
        <time>2021-08-01T12:40:11Z</time>
      </trkpt>
      <trkpt lat="45.19734" lon="5.72515">
        <ele>416.006</ele>
        <time>2021-08-01T12:40:16Z</time>
      </trkpt>
      <trkpt lat="45.19738" lon="5.72513">
        <ele>416.599</ele>
        <time>2021-08-01T12:40:19Z</time>
      </trkpt>
      <trkpt lat="45.19741" lon="5.72511">
        <ele>416.728</ele>
        <time>2021-08-01T12:40:22Z</time>
      </trkpt>
      <trkpt lat="45.19748" lon="5.72509">
        <ele>416.556</ele>
        <time>2021-08-01T12:40:30Z</time>
      </trkpt>
      <trkpt lat="45.19757" lon="5.72491">
        <ele>416.787</ele>
        <time>2021-08-01T12:40:42Z</time>
      </trkpt>
      <trkpt lat="45.1978" lon="5.72451">
        <ele>417.751</ele>
        <time>2021-08-01T12:41:11Z</time>
      </trkpt>
      <trkpt lat="45.19767" lon="5.72518">
        <ele>417.641</ele>
        <time>2021-08-01T12:42:12Z</time>
      </trkpt>
      <trkpt lat="45.19766" lon="5.72519">
        <ele>418.406</ele>
        <time>2021-08-01T12:42:13Z</time>
      </trkpt>
      <trkpt lat="45.19787" lon="5.7255">
        <ele>432.068</ele>
        <time>2021-08-01T12:44:03Z</time>
      </trkpt>
      <trkpt lat="45.19787" lon="5.72551">
        <ele>431.218</ele>
        <time>2021-08-01T12:44:04Z</time>
      </trkpt>
      <trkpt lat="45.19787" lon="5.72552">
        <ele>431.108</ele>
        <time>2021-08-01T12:44:05Z</time>
      </trkpt>
      <trkpt lat="45.1982" lon="5.72586">
        <ele>454.708</ele>
        <time>2021-08-01T12:47:53Z</time>
      </trkpt>
      <trkpt lat="45.19821" lon="5.72587">
        <ele>453.908</ele>
        <time>2021-08-01T12:47:58Z</time>
      </trkpt>
      <trkpt lat="45.19821" lon="5.72587">
        <ele>454.241</ele>
        <time>2021-08-01T12:48:03Z</time>
      </trkpt>
      <trkpt lat="45.19821" lon="5.72587">
        <ele>454.179</ele>
        <time>2021-08-01T12:48:08Z</time>
      </trkpt>
      <trkpt lat="45.19821" lon="5.72587">
        <ele>454.177</ele>
        <time>2021-08-01T12:48:13Z</time>
      </trkpt>
      <trkpt lat="45.19821" lon="5.72587">
        <ele>454.192</ele>
        <time>2021-08-01T12:48:18Z</time>
      </trkpt>
      <trkpt lat="45.19821" lon="5.72587">
        <ele>454.202</ele>
        <time>2021-08-01T12:48:23Z</time>
      </trkpt>
      <trkpt lat="45.19821" lon="5.72587">
        <ele>454.205</ele>
        <time>2021-08-01T12:48:28Z</time>
      </trkpt>
      <trkpt lat="45.19821" lon="5.72587">
        <ele>454.201</ele>
        <time>2021-08-01T12:48:33Z</time>
      </trkpt>
      <trkpt lat="45.19821" lon="5.72587">
        <ele>454.193</ele>
        <time>2021-08-01T12:48:38Z</time>
      </trkpt>
      <trkpt lat="45.19821" lon="5.72587">
        <ele>454.189</ele>
        <time>2021-08-01T12:48:43Z</time>
      </trkpt>
      <trkpt lat="45.19821" lon="5.72587">
        <ele>454.181</ele>
        <time>2021-08-01T12:48:48Z</time>
      </trkpt>
      <trkpt lat="45.19821" lon="5.72587">
        <ele>454.176</ele>
        <time>2021-08-01T12:48:53Z</time>
      </trkpt>
      <trkpt lat="45.19821" lon="5.72587">
        <ele>454.161</ele>
        <time>2021-08-01T12:48:58Z</time>
      </trkpt>
      <trkpt lat="45.19821" lon="5.72587">
        <ele>454.149</ele>
        <time>2021-08-01T12:49:03Z</time>
      </trkpt>
      <trkpt lat="45.19821" lon="5.72587">
        <ele>454.141</ele>
        <time>2021-08-01T12:49:08Z</time>
      </trkpt>
      <trkpt lat="45.19821" lon="5.72587">
        <ele>454.121</ele>
        <time>2021-08-01T12:49:13Z</time>
      </trkpt>
      <trkpt lat="45.19821" lon="5.72587">
        <ele>454.107</ele>
        <time>2021-08-01T12:49:18Z</time>
      </trkpt>
      <trkpt lat="45.19821" lon="5.72587">
        <ele>454.096</ele>
        <time>2021-08-01T12:49:23Z</time>
      </trkpt>
      <trkpt lat="45.19821" lon="5.72587">
        <ele>454.072</ele>
        <time>2021-08-01T12:49:28Z</time>
      </trkpt>
      <trkpt lat="45.19821" lon="5.72587">
        <ele>454.059</ele>
        <time>2021-08-01T12:49:33Z</time>
      </trkpt>
      <trkpt lat="45.19821" lon="5.72587">
        <ele>453.821</ele>
        <time>2021-08-01T12:49:38Z</time>
      </trkpt>
      <trkpt lat="45.19821" lon="5.72585">
        <ele>453.828</ele>
        <time>2021-08-01T12:49:43Z</time>
      </trkpt>
      <trkpt lat="45.19821" lon="5.72585">
        <ele>454.079</ele>
        <time>2021-08-01T12:49:48Z</time>
      </trkpt>
      <trkpt lat="45.19821" lon="5.72585">
        <ele>454.057</ele>
        <time>2021-08-01T12:49:53Z</time>
      </trkpt>
      <trkpt lat="45.19821" lon="5.72585">
        <ele>454.056</ele>
        <time>2021-08-01T12:49:58Z</time>
      </trkpt>
      <trkpt lat="45.19821" lon="5.72585">
        <ele>454.035</ele>
        <time>2021-08-01T12:50:03Z</time>
      </trkpt>
      <trkpt lat="45.19821" lon="5.72585">
        <ele>454.03</ele>
        <time>2021-08-01T12:50:08Z</time>
      </trkpt>
      <trkpt lat="45.19821" lon="5.72585">
        <ele>454.022</ele>
        <time>2021-08-01T12:50:13Z</time>
      </trkpt>
      <trkpt lat="45.19821" lon="5.72585">
        <ele>454.016</ele>
        <time>2021-08-01T12:50:18Z</time>
      </trkpt>
      <trkpt lat="45.19821" lon="5.72585">
        <ele>454.011</ele>
        <time>2021-08-01T12:50:23Z</time>
      </trkpt>
      <trkpt lat="45.19821" lon="5.72585">
        <ele>454.013</ele>
        <time>2021-08-01T12:50:28Z</time>
      </trkpt>
      <trkpt lat="45.19821" lon="5.72585">
        <ele>454.017</ele>
        <time>2021-08-01T12:50:33Z</time>
      </trkpt>
      <trkpt lat="45.19821" lon="5.72585">
        <ele>454.025</ele>
        <time>2021-08-01T12:50:38Z</time>
      </trkpt>
      <trkpt lat="45.19821" lon="5.72585">
        <ele>454.035</ele>
        <time>2021-08-01T12:50:43Z</time>
      </trkpt>
      <trkpt lat="45.19821" lon="5.72585">
        <ele>454.031</ele>
        <time>2021-08-01T12:50:48Z</time>
      </trkpt>
      <trkpt lat="45.19821" lon="5.72585">
        <ele>454.024</ele>
        <time>2021-08-01T12:50:53Z</time>
      </trkpt>
      <trkpt lat="45.19821" lon="5.72585">
        <ele>454.023</ele>
        <time>2021-08-01T12:50:58Z</time>
      </trkpt>
      <trkpt lat="45.19819" lon="5.72581">
        <ele>455.089</ele>
        <time>2021-08-01T12:51:03Z</time>
      </trkpt>
      <trkpt lat="45.19819" lon="5.72574">
        <ele>455.189</ele>
        <time>2021-08-01T12:51:08Z</time>
      </trkpt>
      <trkpt lat="45.1982" lon="5.72567">
        <ele>454.273</ele>
        <time>2021-08-01T12:51:13Z</time>
      </trkpt>
      <trkpt lat="45.19818" lon="5.72558">
        <ele>455.824</ele>
        <time>2021-08-01T12:51:19Z</time>
      </trkpt>
      <trkpt lat="45.19817" lon="5.72551">
        <ele>455.894</ele>
        <time>2021-08-01T12:51:25Z</time>
      </trkpt>
      <trkpt lat="45.19818" lon="5.72544">
        <ele>456.362</ele>
        <time>2021-08-01T12:51:31Z</time>
      </trkpt>
      <trkpt lat="45.19819" lon="5.72535">
        <ele>458.678</ele>
        <time>2021-08-01T12:51:37Z</time>
      </trkpt>
      <trkpt lat="45.1982" lon="5.72525">
        <ele>459.395</ele>
        <time>2021-08-01T12:51:43Z</time>
      </trkpt>
      <trkpt lat="45.19821" lon="5.72516">
        <ele>459.461</ele>
        <time>2021-08-01T12:51:49Z</time>
      </trkpt>
      <trkpt lat="45.19823" lon="5.72508">
        <ele>460.118</ele>
        <time>2021-08-01T12:51:55Z</time>
      </trkpt>
      <trkpt lat="45.19824" lon="5.72499">
        <ele>461.888</ele>
        <time>2021-08-01T12:52:01Z</time>
      </trkpt>
      <trkpt lat="45.19826" lon="5.7249">
        <ele>463.124</ele>
        <time>2021-08-01T12:52:08Z</time>
      </trkpt>
      <trkpt lat="45.19827" lon="5.72478">
        <ele>463.071</ele>
        <time>2021-08-01T12:52:16Z</time>
      </trkpt>
      <trkpt lat="45.1983" lon="5.72467">
        <ele>464.358</ele>
        <time>2021-08-01T12:52:24Z</time>
      </trkpt>
      <trkpt lat="45.19832" lon="5.72454">
        <ele>464.982</ele>
        <time>2021-08-01T12:52:33Z</time>
      </trkpt>
      <trkpt lat="45.19836" lon="5.72448">
        <ele>464.969</ele>
        <time>2021-08-01T12:52:38Z</time>
      </trkpt>
      <trkpt lat="45.19839" lon="5.72442">
        <ele>466.332</ele>
        <time>2021-08-01T12:52:43Z</time>
      </trkpt>
      <trkpt lat="45.19846" lon="5.72448">
        <ele>466.451</ele>
        <time>2021-08-01T12:52:52Z</time>
      </trkpt>
      <trkpt lat="45.1985" lon="5.72447">
        <ele>467.744</ele>
        <time>2021-08-01T12:52:57Z</time>
      </trkpt>
      <trkpt lat="45.19849" lon="5.7244">
        <ele>467.232</ele>
        <time>2021-08-01T12:53:02Z</time>
      </trkpt>
      <trkpt lat="45.19848" lon="5.72432">
        <ele>467.681</ele>
        <time>2021-08-01T12:53:07Z</time>
      </trkpt>
      <trkpt lat="45.19852" lon="5.72429">
        <ele>469.425</ele>
        <time>2021-08-01T12:53:12Z</time>
      </trkpt>
      <trkpt lat="45.19853" lon="5.72433">
        <ele>470.947</ele>
        <time>2021-08-01T12:53:17Z</time>
      </trkpt>
      <trkpt lat="45.19854" lon="5.72437">
        <ele>471.746</ele>
        <time>2021-08-01T12:53:22Z</time>
      </trkpt>
      <trkpt lat="45.19855" lon="5.72441">
        <ele>473.714</ele>
        <time>2021-08-01T12:53:27Z</time>
      </trkpt>
      <trkpt lat="45.19857" lon="5.72445">
        <ele>472.904</ele>
        <time>2021-08-01T12:53:32Z</time>
      </trkpt>
      <trkpt lat="45.19856" lon="5.72448">
        <ele>475.917</ele>
        <time>2021-08-01T12:53:37Z</time>
      </trkpt>
      <trkpt lat="45.19855" lon="5.72451">
        <ele>477.719</ele>
        <time>2021-08-01T12:53:42Z</time>
      </trkpt>
      <trkpt lat="45.19855" lon="5.72453">
        <ele>478.925</ele>
        <time>2021-08-01T12:53:47Z</time>
      </trkpt>
      <trkpt lat="45.19855" lon="5.72453">
        <ele>479.666</ele>
        <time>2021-08-01T12:53:52Z</time>
      </trkpt>
      <trkpt lat="45.19856" lon="5.72453">
        <ele>479.867</ele>
        <time>2021-08-01T12:53:57Z</time>
      </trkpt>
      <trkpt lat="45.19859" lon="5.72453">
        <ele>481.089</ele>
        <time>2021-08-01T12:54:02Z</time>
      </trkpt>
      <trkpt lat="45.19859" lon="5.72449">
        <ele>482.04</ele>
        <time>2021-08-01T12:54:07Z</time>
      </trkpt>
      <trkpt lat="45.1986" lon="5.72447">
        <ele>483.328</ele>
        <time>2021-08-01T12:54:12Z</time>
      </trkpt>
      <trkpt lat="45.19861" lon="5.72446">
        <ele>483.591</ele>
        <time>2021-08-01T12:54:17Z</time>
      </trkpt>
      <trkpt lat="45.19861" lon="5.72446">
        <ele>484.377</ele>
        <time>2021-08-01T12:54:22Z</time>
      </trkpt>
      <trkpt lat="45.19861" lon="5.72445">
        <ele>485.157</ele>
        <time>2021-08-01T12:54:27Z</time>
      </trkpt>
      <trkpt lat="45.19861" lon="5.72445">
        <ele>485.24</ele>
        <time>2021-08-01T12:54:32Z</time>
      </trkpt>
      <trkpt lat="45.19865" lon="5.72445">
        <ele>486.471</ele>
        <time>2021-08-01T12:54:37Z</time>
      </trkpt>
      <trkpt lat="45.19866" lon="5.72446">
        <ele>486.237</ele>
        <time>2021-08-01T12:54:42Z</time>
      </trkpt>
      <trkpt lat="45.19866" lon="5.72446">
        <ele>486.121</ele>
        <time>2021-08-01T12:54:47Z</time>
      </trkpt>
      <trkpt lat="45.19866" lon="5.72446">
        <ele>485.879</ele>
        <time>2021-08-01T12:54:52Z</time>
      </trkpt>
      <trkpt lat="45.19864" lon="5.72446">
        <ele>485.894</ele>
        <time>2021-08-01T12:54:57Z</time>
      </trkpt>
      <trkpt lat="45.19863" lon="5.7244">
        <ele>485.208</ele>
        <time>2021-08-01T12:55:02Z</time>
      </trkpt>
      <trkpt lat="45.19865" lon="5.72436">
        <ele>483.752</ele>
        <time>2021-08-01T12:55:07Z</time>
      </trkpt>
      <trkpt lat="45.19867" lon="5.72432">
        <ele>483.95</ele>
        <time>2021-08-01T12:55:12Z</time>
      </trkpt>
      <trkpt lat="45.19867" lon="5.72429">
        <ele>483.006</ele>
        <time>2021-08-01T12:55:17Z</time>
      </trkpt>
      <trkpt lat="45.19867" lon="5.72429">
        <ele>482.81</ele>
        <time>2021-08-01T12:55:22Z</time>
      </trkpt>
      <trkpt lat="45.19867" lon="5.72428">
        <ele>482.404</ele>
        <time>2021-08-01T12:55:27Z</time>
      </trkpt>
      <trkpt lat="45.19867" lon="5.72428">
        <ele>482.413</ele>
        <time>2021-08-01T12:55:32Z</time>
      </trkpt>
      <trkpt lat="45.19867" lon="5.72428">
        <ele>481.873</ele>
        <time>2021-08-01T12:55:37Z</time>
      </trkpt>
      <trkpt lat="45.19869" lon="5.7243">
        <ele>481.682</ele>
        <time>2021-08-01T12:55:42Z</time>
      </trkpt>
      <trkpt lat="45.19869" lon="5.72431">
        <ele>481.856</ele>
        <time>2021-08-01T12:55:47Z</time>
      </trkpt>
      <trkpt lat="45.19869" lon="5.72431">
        <ele>482.657</ele>
        <time>2021-08-01T12:55:52Z</time>
      </trkpt>
      <trkpt lat="45.19869" lon="5.72431">
        <ele>481.909</ele>
        <time>2021-08-01T12:55:57Z</time>
      </trkpt>
      <trkpt lat="45.19869" lon="5.72438">
        <ele>483.095</ele>
        <time>2021-08-01T12:56:02Z</time>
      </trkpt>
      <trkpt lat="45.19868" lon="5.72443">
        <ele>483.534</ele>
        <time>2021-08-01T12:56:07Z</time>
      </trkpt>
      <trkpt lat="45.19868" lon="5.72449">
        <ele>484.191</ele>
        <time>2021-08-01T12:56:12Z</time>
      </trkpt>
      <trkpt lat="45.19867" lon="5.72454">
        <ele>484.846</ele>
        <time>2021-08-01T12:56:17Z</time>
      </trkpt>
      <trkpt lat="45.19866" lon="5.72457">
        <ele>483.112</ele>
        <time>2021-08-01T12:56:22Z</time>
      </trkpt>
      <trkpt lat="45.19868" lon="5.72464">
        <ele>482.044</ele>
        <time>2021-08-01T12:56:27Z</time>
      </trkpt>
      <trkpt lat="45.19871" lon="5.7247">
        <ele>481.51</ele>
        <time>2021-08-01T12:56:32Z</time>
      </trkpt>
      <trkpt lat="45.19872" lon="5.72478">
        <ele>482.719</ele>
        <time>2021-08-01T12:56:37Z</time>
      </trkpt>
      <trkpt lat="45.19872" lon="5.72482">
        <ele>484.243</ele>
        <time>2021-08-01T12:56:42Z</time>
      </trkpt>
      <trkpt lat="45.19873" lon="5.72489">
        <ele>484.605</ele>
        <time>2021-08-01T12:56:47Z</time>
      </trkpt>
      <trkpt lat="45.19876" lon="5.72489">
        <ele>485.208</ele>
        <time>2021-08-01T12:56:52Z</time>
      </trkpt>
      <trkpt lat="45.19877" lon="5.72487">
        <ele>486.03</ele>
        <time>2021-08-01T12:56:57Z</time>
      </trkpt>
      <trkpt lat="45.19879" lon="5.72486">
        <ele>487.261</ele>
        <time>2021-08-01T12:57:02Z</time>
      </trkpt>
      <trkpt lat="45.19882" lon="5.72492">
        <ele>486.033</ele>
        <time>2021-08-01T12:57:07Z</time>
      </trkpt>
      <trkpt lat="45.19883" lon="5.72499">
        <ele>485.365</ele>
        <time>2021-08-01T12:57:12Z</time>
      </trkpt>
      <trkpt lat="45.19882" lon="5.72505">
        <ele>483.218</ele>
        <time>2021-08-01T12:57:17Z</time>
      </trkpt>
      <trkpt lat="45.1988" lon="5.72507">
        <ele>485.681</ele>
        <time>2021-08-01T12:57:22Z</time>
      </trkpt>
      <trkpt lat="45.19881" lon="5.72507">
        <ele>488.479</ele>
        <time>2021-08-01T12:57:27Z</time>
      </trkpt>
      <trkpt lat="45.19879" lon="5.72508">
        <ele>489.161</ele>
        <time>2021-08-01T12:57:32Z</time>
      </trkpt>
      <trkpt lat="45.19879" lon="5.72507">
        <ele>490.71</ele>
        <time>2021-08-01T12:57:37Z</time>
      </trkpt>
      <trkpt lat="45.19879" lon="5.72507">
        <ele>491.132</ele>
        <time>2021-08-01T12:57:42Z</time>
      </trkpt>
      <trkpt lat="45.19876" lon="5.72506">
        <ele>489.811</ele>
        <time>2021-08-01T12:57:47Z</time>
      </trkpt>
      <trkpt lat="45.19872" lon="5.72504">
        <ele>489.381</ele>
        <time>2021-08-01T12:57:52Z</time>
      </trkpt>
      <trkpt lat="45.19867" lon="5.72504">
        <ele>490.623</ele>
        <time>2021-08-01T12:57:57Z</time>
      </trkpt>
      <trkpt lat="45.19867" lon="5.72504">
        <ele>491.11</ele>
        <time>2021-08-01T12:58:02Z</time>
      </trkpt>
      <trkpt lat="45.19867" lon="5.72506">
        <ele>490.874</ele>
        <time>2021-08-01T12:58:07Z</time>
      </trkpt>
      <trkpt lat="45.1987" lon="5.72512">
        <ele>490.814</ele>
        <time>2021-08-01T12:58:12Z</time>
      </trkpt>
      <trkpt lat="45.1987" lon="5.72518">
        <ele>490.919</ele>
        <time>2021-08-01T12:58:17Z</time>
      </trkpt>
      <trkpt lat="45.19872" lon="5.72525">
        <ele>490.645</ele>
        <time>2021-08-01T12:58:22Z</time>
      </trkpt>
      <trkpt lat="45.19873" lon="5.72532">
        <ele>491.353</ele>
        <time>2021-08-01T12:58:27Z</time>
      </trkpt>
      <trkpt lat="45.19875" lon="5.72538">
        <ele>491.759</ele>
        <time>2021-08-01T12:58:32Z</time>
      </trkpt>
      <trkpt lat="45.19874" lon="5.72538">
        <ele>492.218</ele>
        <time>2021-08-01T12:58:37Z</time>
      </trkpt>
      <trkpt lat="45.19874" lon="5.72538">
        <ele>492.133</ele>
        <time>2021-08-01T12:58:42Z</time>
      </trkpt>
      <trkpt lat="45.19873" lon="5.72538">
        <ele>492.259</ele>
        <time>2021-08-01T12:58:47Z</time>
      </trkpt>
      <trkpt lat="45.19873" lon="5.72538">
        <ele>492.26</ele>
        <time>2021-08-01T12:58:52Z</time>
      </trkpt>
      <trkpt lat="45.19873" lon="5.72538">
        <ele>492.26</ele>
        <time>2021-08-01T12:58:57Z</time>
      </trkpt>
      <trkpt lat="45.19872" lon="5.72537">
        <ele>492.909</ele>
        <time>2021-08-01T12:59:02Z</time>
      </trkpt>
      <trkpt lat="45.19871" lon="5.72536">
        <ele>492.828</ele>
        <time>2021-08-01T12:59:07Z</time>
      </trkpt>
      <trkpt lat="45.19871" lon="5.72536">
        <ele>493.007</ele>
        <time>2021-08-01T12:59:12Z</time>
      </trkpt>
      <trkpt lat="45.19871" lon="5.72536">
        <ele>493.088</ele>
        <time>2021-08-01T12:59:17Z</time>
      </trkpt>
      <trkpt lat="45.19871" lon="5.72537">
        <ele>493.84</ele>
        <time>2021-08-01T12:59:22Z</time>
      </trkpt>
      <trkpt lat="45.19871" lon="5.72537">
        <ele>494.003</ele>
        <time>2021-08-01T12:59:27Z</time>
      </trkpt>
      <trkpt lat="45.19871" lon="5.72537">
        <ele>494.284</ele>
        <time>2021-08-01T12:59:32Z</time>
      </trkpt>
      <trkpt lat="45.19871" lon="5.72537">
        <ele>494.297</ele>
        <time>2021-08-01T12:59:37Z</time>
      </trkpt>
      <trkpt lat="45.19871" lon="5.72537">
        <ele>494.486</ele>
        <time>2021-08-01T12:59:42Z</time>
      </trkpt>
      <trkpt lat="45.19871" lon="5.72537">
        <ele>494.839</ele>
        <time>2021-08-01T12:59:47Z</time>
      </trkpt>
      <trkpt lat="45.19871" lon="5.72537">
        <ele>494.686</ele>
        <time>2021-08-01T12:59:52Z</time>
      </trkpt>
      <trkpt lat="45.19871" lon="5.72538">
        <ele>494.653</ele>
        <time>2021-08-01T12:59:57Z</time>
      </trkpt>
      <trkpt lat="45.19871" lon="5.72538">
        <ele>494.654</ele>
        <time>2021-08-01T13:00:02Z</time>
      </trkpt>
      <trkpt lat="45.19871" lon="5.72538">
        <ele>494.654</ele>
        <time>2021-08-01T13:00:07Z</time>
      </trkpt>
      <trkpt lat="45.19874" lon="5.72537">
        <ele>493.487</ele>
        <time>2021-08-01T13:00:12Z</time>
      </trkpt>
      <trkpt lat="45.19876" lon="5.72543">
        <ele>492.738</ele>
        <time>2021-08-01T13:00:17Z</time>
      </trkpt>
      <trkpt lat="45.19876" lon="5.72549">
        <ele>492.611</ele>
        <time>2021-08-01T13:00:22Z</time>
      </trkpt>
      <trkpt lat="45.19873" lon="5.72553">
        <ele>492.202</ele>
        <time>2021-08-01T13:00:27Z</time>
      </trkpt>
      <trkpt lat="45.19871" lon="5.72554">
        <ele>492.619</ele>
        <time>2021-08-01T13:00:32Z</time>
      </trkpt>
      <trkpt lat="45.19871" lon="5.72554">
        <ele>492.878</ele>
        <time>2021-08-01T13:00:37Z</time>
      </trkpt>
      <trkpt lat="45.19871" lon="5.72554">
        <ele>493.233</ele>
        <time>2021-08-01T13:00:42Z</time>
      </trkpt>
      <trkpt lat="45.19871" lon="5.72554">
        <ele>493.233</ele>
        <time>2021-08-01T13:00:47Z</time>
      </trkpt>
      <trkpt lat="45.19871" lon="5.72554">
        <ele>493.227</ele>
        <time>2021-08-01T13:00:52Z</time>
      </trkpt>
      <trkpt lat="45.19871" lon="5.72554">
        <ele>493.22</ele>
        <time>2021-08-01T13:00:57Z</time>
      </trkpt>
      <trkpt lat="45.19871" lon="5.72554">
        <ele>493.217</ele>
        <time>2021-08-01T13:01:02Z</time>
      </trkpt>
      <trkpt lat="45.19871" lon="5.72554">
        <ele>493.214</ele>
        <time>2021-08-01T13:01:07Z</time>
      </trkpt>
      <trkpt lat="45.19871" lon="5.72554">
        <ele>493.457</ele>
        <time>2021-08-01T13:01:12Z</time>
      </trkpt>
      <trkpt lat="45.19874" lon="5.72553">
        <ele>492.684</ele>
        <time>2021-08-01T13:01:17Z</time>
      </trkpt>
      <trkpt lat="45.19876" lon="5.72552">
        <ele>491.591</ele>
        <time>2021-08-01T13:01:22Z</time>
      </trkpt>
      <trkpt lat="45.19877" lon="5.72551">
        <ele>491.723</ele>
        <time>2021-08-01T13:01:27Z</time>
      </trkpt>
      <trkpt lat="45.19878" lon="5.72552">
        <ele>492.837</ele>
        <time>2021-08-01T13:01:32Z</time>
      </trkpt>
      <trkpt lat="45.19878" lon="5.72552">
        <ele>493.042</ele>
        <time>2021-08-01T13:01:37Z</time>
      </trkpt>
      <trkpt lat="45.19878" lon="5.72552">
        <ele>494.26</ele>
        <time>2021-08-01T13:01:42Z</time>
      </trkpt>
      <trkpt lat="45.19878" lon="5.72551">
        <ele>494.184</ele>
        <time>2021-08-01T13:01:47Z</time>
      </trkpt>
      <trkpt lat="45.19878" lon="5.72551">
        <ele>494.255</ele>
        <time>2021-08-01T13:01:52Z</time>
      </trkpt>
      <trkpt lat="45.19878" lon="5.72551">
        <ele>493.619</ele>
        <time>2021-08-01T13:01:57Z</time>
      </trkpt>
      <trkpt lat="45.19878" lon="5.72552">
        <ele>494.042</ele>
        <time>2021-08-01T13:02:02Z</time>
      </trkpt>
      <trkpt lat="45.19877" lon="5.72552">
        <ele>494.022</ele>
        <time>2021-08-01T13:02:07Z</time>
      </trkpt>
      <trkpt lat="45.19876" lon="5.72551">
        <ele>494.329</ele>
        <time>2021-08-01T13:02:12Z</time>
      </trkpt>
      <trkpt lat="45.19876" lon="5.72551">
        <ele>494.953</ele>
        <time>2021-08-01T13:02:17Z</time>
      </trkpt>
      <trkpt lat="45.19878" lon="5.7255">
        <ele>494.444</ele>
        <time>2021-08-01T13:02:22Z</time>
      </trkpt>
      <trkpt lat="45.19879" lon="5.72548">
        <ele>493.345</ele>
        <time>2021-08-01T13:02:27Z</time>
      </trkpt>
      <trkpt lat="45.19879" lon="5.72544">
        <ele>493.002</ele>
        <time>2021-08-01T13:02:32Z</time>
      </trkpt>
      <trkpt lat="45.19879" lon="5.7254">
        <ele>491.545</ele>
        <time>2021-08-01T13:02:37Z</time>
      </trkpt>
      <trkpt lat="45.19881" lon="5.72537">
        <ele>491.252</ele>
        <time>2021-08-01T13:02:42Z</time>
      </trkpt>
      <trkpt lat="45.19883" lon="5.72533">
        <ele>490.739</ele>
        <time>2021-08-01T13:02:47Z</time>
      </trkpt>
      <trkpt lat="45.19885" lon="5.72534">
        <ele>490.54</ele>
        <time>2021-08-01T13:02:52Z</time>
      </trkpt>
      <trkpt lat="45.19886" lon="5.72542">
        <ele>490.086</ele>
        <time>2021-08-01T13:02:57Z</time>
      </trkpt>
      <trkpt lat="45.19887" lon="5.72549">
        <ele>489.26</ele>
        <time>2021-08-01T13:03:02Z</time>
      </trkpt>
      <trkpt lat="45.19888" lon="5.72557">
        <ele>488.561</ele>
        <time>2021-08-01T13:03:07Z</time>
      </trkpt>
      <trkpt lat="45.19886" lon="5.72565">
        <ele>488.253</ele>
        <time>2021-08-01T13:03:12Z</time>
      </trkpt>
      <trkpt lat="45.19885" lon="5.72572">
        <ele>487.606</ele>
        <time>2021-08-01T13:03:17Z</time>
      </trkpt>
      <trkpt lat="45.19884" lon="5.72575">
        <ele>486.887</ele>
        <time>2021-08-01T13:03:22Z</time>
      </trkpt>
      <trkpt lat="45.19884" lon="5.72578">
        <ele>485.938</ele>
        <time>2021-08-01T13:03:27Z</time>
      </trkpt>
      <trkpt lat="45.19883" lon="5.72582">
        <ele>485.415</ele>
        <time>2021-08-01T13:03:32Z</time>
      </trkpt>
      <trkpt lat="45.19878" lon="5.7258">
        <ele>483.538</ele>
        <time>2021-08-01T13:03:37Z</time>
      </trkpt>
      <trkpt lat="45.19875" lon="5.72578">
        <ele>481.929</ele>
        <time>2021-08-01T13:03:42Z</time>
      </trkpt>
      <trkpt lat="45.19873" lon="5.72576">
        <ele>480.345</ele>
        <time>2021-08-01T13:03:47Z</time>
      </trkpt>
      <trkpt lat="45.19869" lon="5.72575">
        <ele>480.238</ele>
        <time>2021-08-01T13:03:52Z</time>
      </trkpt>
      <trkpt lat="45.19865" lon="5.72575">
        <ele>479.039</ele>
        <time>2021-08-01T13:03:57Z</time>
      </trkpt>
      <trkpt lat="45.19864" lon="5.72575">
        <ele>477.28</ele>
        <time>2021-08-01T13:04:02Z</time>
      </trkpt>
      <trkpt lat="45.19865" lon="5.72566">
        <ele>473.996</ele>
        <time>2021-08-01T13:04:07Z</time>
      </trkpt>
      <trkpt lat="45.19867" lon="5.72558">
        <ele>470.834</ele>
        <time>2021-08-01T13:04:12Z</time>
      </trkpt>
      <trkpt lat="45.19868" lon="5.72555">
        <ele>471.016</ele>
        <time>2021-08-01T13:04:17Z</time>
      </trkpt>
      <trkpt lat="45.19868" lon="5.72555">
        <ele>473.359</ele>
        <time>2021-08-01T13:04:22Z</time>
      </trkpt>
      <trkpt lat="45.19868" lon="5.72552">
        <ele>472.529</ele>
        <time>2021-08-01T13:04:27Z</time>
      </trkpt>
      <trkpt lat="45.19867" lon="5.72547">
        <ele>471.866</ele>
        <time>2021-08-01T13:04:32Z</time>
      </trkpt>
      <trkpt lat="45.19866" lon="5.7254">
        <ele>471.968</ele>
        <time>2021-08-01T13:04:37Z</time>
      </trkpt>
      <trkpt lat="45.19864" lon="5.72535">
        <ele>471.233</ele>
        <time>2021-08-01T13:04:42Z</time>
      </trkpt>
      <trkpt lat="45.19865" lon="5.72526">
        <ele>471.456</ele>
        <time>2021-08-01T13:04:47Z</time>
      </trkpt>
      <trkpt lat="45.19863" lon="5.72519">
        <ele>474.107</ele>
        <time>2021-08-01T13:04:52Z</time>
      </trkpt>
      <trkpt lat="45.1986" lon="5.72516">
        <ele>478.647</ele>
        <time>2021-08-01T13:04:57Z</time>
      </trkpt>
      <trkpt lat="45.19855" lon="5.72522">
        <ele>478.024</ele>
        <time>2021-08-01T13:05:02Z</time>
      </trkpt>
      <trkpt lat="45.19855" lon="5.7253">
        <ele>474.625</ele>
        <time>2021-08-01T13:05:07Z</time>
      </trkpt>
      <trkpt lat="45.19857" lon="5.72537">
        <ele>473.699</ele>
        <time>2021-08-01T13:05:12Z</time>
      </trkpt>
      <trkpt lat="45.19858" lon="5.72545">
        <ele>472.546</ele>
        <time>2021-08-01T13:05:17Z</time>
      </trkpt>
      <trkpt lat="45.19859" lon="5.72553">
        <ele>471.371</ele>
        <time>2021-08-01T13:05:22Z</time>
      </trkpt>
      <trkpt lat="45.19859" lon="5.7256">
        <ele>470.765</ele>
        <time>2021-08-01T13:05:27Z</time>
      </trkpt>
      <trkpt lat="45.19859" lon="5.72568">
        <ele>469.846</ele>
        <time>2021-08-01T13:05:32Z</time>
      </trkpt>
      <trkpt lat="45.1986" lon="5.72577">
        <ele>471.485</ele>
        <time>2021-08-01T13:05:37Z</time>
      </trkpt>
      <trkpt lat="45.19861" lon="5.72585">
        <ele>470.864</ele>
        <time>2021-08-01T13:05:42Z</time>
      </trkpt>
      <trkpt lat="45.19862" lon="5.7259">
        <ele>468.92</ele>
        <time>2021-08-01T13:05:47Z</time>
      </trkpt>
      <trkpt lat="45.19864" lon="5.72597">
        <ele>467.459</ele>
        <time>2021-08-01T13:05:52Z</time>
      </trkpt>
      <trkpt lat="45.19867" lon="5.72604">
        <ele>468.963</ele>
        <time>2021-08-01T13:05:57Z</time>
      </trkpt>
      <trkpt lat="45.19869" lon="5.72612">
        <ele>470.05</ele>
        <time>2021-08-01T13:06:02Z</time>
      </trkpt>
      <trkpt lat="45.1987" lon="5.72617">
        <ele>468.728</ele>
        <time>2021-08-01T13:06:07Z</time>
      </trkpt>
      <trkpt lat="45.19869" lon="5.72621">
        <ele>468.286</ele>
        <time>2021-08-01T13:06:12Z</time>
      </trkpt>
      <trkpt lat="45.19867" lon="5.72625">
        <ele>468.303</ele>
        <time>2021-08-01T13:06:17Z</time>
      </trkpt>
      <trkpt lat="45.19868" lon="5.72628">
        <ele>464.457</ele>
        <time>2021-08-01T13:06:22Z</time>
      </trkpt>
      <trkpt lat="45.19867" lon="5.72635">
        <ele>462.32</ele>
        <time>2021-08-01T13:06:27Z</time>
      </trkpt>
      <trkpt lat="45.19869" lon="5.72644">
        <ele>463.354</ele>
        <time>2021-08-01T13:06:32Z</time>
      </trkpt>
      <trkpt lat="45.19872" lon="5.7265">
        <ele>461.629</ele>
        <time>2021-08-01T13:06:37Z</time>
      </trkpt>
      <trkpt lat="45.19873" lon="5.72651">
        <ele>461.07</ele>
        <time>2021-08-01T13:06:42Z</time>
      </trkpt>
      <trkpt lat="45.19876" lon="5.7266">
        <ele>462.155</ele>
        <time>2021-08-01T13:06:47Z</time>
      </trkpt>
      <trkpt lat="45.19877" lon="5.72664">
        <ele>460.695</ele>
        <time>2021-08-01T13:06:52Z</time>
      </trkpt>
      <trkpt lat="45.19877" lon="5.72666">
        <ele>460.587</ele>
        <time>2021-08-01T13:06:57Z</time>
      </trkpt>
      <trkpt lat="45.19877" lon="5.72671">
        <ele>455.514</ele>
        <time>2021-08-01T13:07:02Z</time>
      </trkpt>
      <trkpt lat="45.19878" lon="5.72678">
        <ele>453.588</ele>
        <time>2021-08-01T13:07:07Z</time>
      </trkpt>
      <trkpt lat="45.19877" lon="5.72682">
        <ele>452.601</ele>
        <time>2021-08-01T13:07:12Z</time>
      </trkpt>
      <trkpt lat="45.19872" lon="5.72684">
        <ele>452.896</ele>
        <time>2021-08-01T13:07:17Z</time>
      </trkpt>
      <trkpt lat="45.1987" lon="5.72685">
        <ele>451.734</ele>
        <time>2021-08-01T13:07:22Z</time>
      </trkpt>
      <trkpt lat="45.1987" lon="5.72688">
        <ele>450.503</ele>
        <time>2021-08-01T13:07:27Z</time>
      </trkpt>
      <trkpt lat="45.1987" lon="5.7269">
        <ele>448.831</ele>
        <time>2021-08-01T13:07:32Z</time>
      </trkpt>
      <trkpt lat="45.1987" lon="5.72692">
        <ele>446.593</ele>
        <time>2021-08-01T13:07:37Z</time>
      </trkpt>
      <trkpt lat="45.1987" lon="5.72694">
        <ele>444.187</ele>
        <time>2021-08-01T13:07:42Z</time>
      </trkpt>
      <trkpt lat="45.19868" lon="5.72693">
        <ele>444.404</ele>
        <time>2021-08-01T13:07:47Z</time>
      </trkpt>
      <trkpt lat="45.19868" lon="5.7269">
        <ele>444.639</ele>
        <time>2021-08-01T13:07:52Z</time>
      </trkpt>
      <trkpt lat="45.19868" lon="5.72688">
        <ele>444.678</ele>
        <time>2021-08-01T13:07:57Z</time>
      </trkpt>
      <trkpt lat="45.19864" lon="5.72697">
        <ele>444.449</ele>
        <time>2021-08-01T13:08:02Z</time>
      </trkpt>
      <trkpt lat="45.19866" lon="5.72703">
        <ele>444.076</ele>
        <time>2021-08-01T13:08:07Z</time>
      </trkpt>
      <trkpt lat="45.1987" lon="5.72703">
        <ele>442.379</ele>
        <time>2021-08-01T13:08:12Z</time>
      </trkpt>
      <trkpt lat="45.19871" lon="5.72702">
        <ele>442.204</ele>
        <time>2021-08-01T13:08:17Z</time>
      </trkpt>
      <trkpt lat="45.19871" lon="5.72701">
        <ele>441.655</ele>
        <time>2021-08-01T13:08:22Z</time>
      </trkpt>
      <trkpt lat="45.19871" lon="5.72701">
        <ele>441.614</ele>
        <time>2021-08-01T13:08:27Z</time>
      </trkpt>
      <trkpt lat="45.19871" lon="5.72701">
        <ele>441.616</ele>
        <time>2021-08-01T13:08:32Z</time>
      </trkpt>
      <trkpt lat="45.1987" lon="5.72701">
        <ele>442.139</ele>
        <time>2021-08-01T13:08:37Z</time>
      </trkpt>
      <trkpt lat="45.19864" lon="5.727">
        <ele>442.602</ele>
        <time>2021-08-01T13:08:42Z</time>
      </trkpt>
      <trkpt lat="45.19861" lon="5.72698">
        <ele>442.409</ele>
        <time>2021-08-01T13:08:47Z</time>
      </trkpt>
      <trkpt lat="45.19859" lon="5.72695">
        <ele>439.793</ele>
        <time>2021-08-01T13:08:52Z</time>
      </trkpt>
      <trkpt lat="45.19857" lon="5.72695">
        <ele>438.713</ele>
        <time>2021-08-01T13:08:57Z</time>
      </trkpt>
      <trkpt lat="45.19856" lon="5.72702">
        <ele>437.16</ele>
        <time>2021-08-01T13:09:02Z</time>
      </trkpt>
      <trkpt lat="45.19854" lon="5.72701">
        <ele>437.687</ele>
        <time>2021-08-01T13:09:07Z</time>
      </trkpt>
      <trkpt lat="45.19852" lon="5.72699">
        <ele>436.882</ele>
        <time>2021-08-01T13:09:12Z</time>
      </trkpt>
      <trkpt lat="45.19851" lon="5.72703">
        <ele>432.788</ele>
        <time>2021-08-01T13:09:17Z</time>
      </trkpt>
      <trkpt lat="45.19856" lon="5.72709">
        <ele>430.417</ele>
        <time>2021-08-01T13:09:22Z</time>
      </trkpt>
      <trkpt lat="45.1986" lon="5.72713">
        <ele>430.006</ele>
        <time>2021-08-01T13:09:27Z</time>
      </trkpt>
      <trkpt lat="45.19862" lon="5.72717">
        <ele>429.204</ele>
        <time>2021-08-01T13:09:32Z</time>
      </trkpt>
      <trkpt lat="45.19862" lon="5.7272">
        <ele>428.006</ele>
        <time>2021-08-01T13:09:37Z</time>
      </trkpt>
      <trkpt lat="45.19861" lon="5.72724">
        <ele>427.139</ele>
        <time>2021-08-01T13:09:42Z</time>
      </trkpt>
      <trkpt lat="45.19859" lon="5.7272">
        <ele>425.507</ele>
        <time>2021-08-01T13:09:47Z</time>
      </trkpt>
      <trkpt lat="45.19852" lon="5.72722">
        <ele>425.993</ele>
        <time>2021-08-01T13:09:52Z</time>
      </trkpt>
      <trkpt lat="45.19849" lon="5.72719">
        <ele>425.491</ele>
        <time>2021-08-01T13:09:57Z</time>
      </trkpt>
      <trkpt lat="45.19846" lon="5.72717">
        <ele>423.056</ele>
        <time>2021-08-01T13:10:02Z</time>
      </trkpt>
      <trkpt lat="45.19845" lon="5.72717">
        <ele>422.094</ele>
        <time>2021-08-01T13:10:07Z</time>
      </trkpt>
      <trkpt lat="45.19841" lon="5.72719">
        <ele>421.023</ele>
        <time>2021-08-01T13:10:12Z</time>
      </trkpt>
      <trkpt lat="45.19839" lon="5.72726">
        <ele>421.132</ele>
        <time>2021-08-01T13:10:17Z</time>
      </trkpt>
      <trkpt lat="45.19839" lon="5.72732">
        <ele>421.037</ele>
        <time>2021-08-01T13:10:22Z</time>
      </trkpt>
      <trkpt lat="45.19839" lon="5.72731">
        <ele>420.502</ele>
        <time>2021-08-01T13:10:27Z</time>
      </trkpt>
      <trkpt lat="45.19838" lon="5.7273">
        <ele>420.02</ele>
        <time>2021-08-01T13:10:32Z</time>
      </trkpt>
      <trkpt lat="45.19838" lon="5.72727">
        <ele>420.034</ele>
        <time>2021-08-01T13:10:37Z</time>
      </trkpt>
      <trkpt lat="45.19838" lon="5.72726">
        <ele>419.778</ele>
        <time>2021-08-01T13:10:42Z</time>
      </trkpt>
      <trkpt lat="45.19838" lon="5.72725">
        <ele>419.976</ele>
        <time>2021-08-01T13:10:47Z</time>
      </trkpt>
      <trkpt lat="45.19838" lon="5.72725">
        <ele>420.113</ele>
        <time>2021-08-01T13:10:52Z</time>
      </trkpt>
      <trkpt lat="45.19838" lon="5.72725">
        <ele>420.146</ele>
        <time>2021-08-01T13:10:57Z</time>
      </trkpt>
      <trkpt lat="45.19838" lon="5.72725">
        <ele>420.16</ele>
        <time>2021-08-01T13:11:02Z</time>
      </trkpt>
      <trkpt lat="45.19838" lon="5.72725">
        <ele>420.167</ele>
        <time>2021-08-01T13:11:07Z</time>
      </trkpt>
      <trkpt lat="45.19839" lon="5.7272">
        <ele>419.429</ele>
        <time>2021-08-01T13:11:12Z</time>
      </trkpt>
      <trkpt lat="45.19838" lon="5.72718">
        <ele>419.415</ele>
        <time>2021-08-01T13:11:17Z</time>
      </trkpt>
      <trkpt lat="45.19836" lon="5.72716">
        <ele>418.453</ele>
        <time>2021-08-01T13:11:22Z</time>
      </trkpt>
      <trkpt lat="45.19833" lon="5.72716">
        <ele>417.625</ele>
        <time>2021-08-01T13:11:27Z</time>
      </trkpt>
      <trkpt lat="45.19832" lon="5.72724">
        <ele>416.454</ele>
        <time>2021-08-01T13:11:32Z</time>
      </trkpt>
      <trkpt lat="45.19831" lon="5.72733">
        <ele>415.17</ele>
        <time>2021-08-01T13:11:38Z</time>
      </trkpt>
      <trkpt lat="45.19831" lon="5.72736">
        <ele>414.611</ele>
        <time>2021-08-01T13:11:43Z</time>
      </trkpt>
      <trkpt lat="45.19834" lon="5.72741">
        <ele>413.65</ele>
        <time>2021-08-01T13:11:48Z</time>
      </trkpt>
      <trkpt lat="45.19839" lon="5.72745">
        <ele>413.679</ele>
        <time>2021-08-01T13:11:53Z</time>
      </trkpt>
      <trkpt lat="45.19844" lon="5.72746">
        <ele>412.376</ele>
        <time>2021-08-01T13:11:58Z</time>
      </trkpt>
      <trkpt lat="45.19844" lon="5.72739">
        <ele>414.459</ele>
        <time>2021-08-01T13:12:03Z</time>
      </trkpt>
      <trkpt lat="45.19843" lon="5.72737">
        <ele>414.367</ele>
        <time>2021-08-01T13:12:12Z</time>
      </trkpt>
      <trkpt lat="45.19849" lon="5.72737">
        <ele>411.891</ele>
        <time>2021-08-01T13:12:17Z</time>
      </trkpt>
      <trkpt lat="45.19857" lon="5.72738">
        <ele>411.962</ele>
        <time>2021-08-01T13:12:22Z</time>
      </trkpt>
      <trkpt lat="45.19858" lon="5.72743">
        <ele>412.338</ele>
        <time>2021-08-01T13:12:27Z</time>
      </trkpt>
      <trkpt lat="45.19856" lon="5.72753">
        <ele>412.777</ele>
        <time>2021-08-01T13:12:32Z</time>
      </trkpt>
      <trkpt lat="45.19857" lon="5.7276">
        <ele>410.944</ele>
        <time>2021-08-01T13:12:37Z</time>
      </trkpt>
      <trkpt lat="45.19857" lon="5.72761">
        <ele>409.992</ele>
        <time>2021-08-01T13:12:42Z</time>
      </trkpt>
      <trkpt lat="45.19856" lon="5.72761">
        <ele>410.442</ele>
        <time>2021-08-01T13:12:47Z</time>
      </trkpt>
      <trkpt lat="45.19855" lon="5.72758">
        <ele>409.278</ele>
        <time>2021-08-01T13:12:52Z</time>
      </trkpt>
      <trkpt lat="45.19855" lon="5.72755">
        <ele>407.561</ele>
        <time>2021-08-01T13:12:57Z</time>
      </trkpt>
      <trkpt lat="45.19854" lon="5.72758">
        <ele>405.883</ele>
        <time>2021-08-01T13:13:02Z</time>
      </trkpt>
      <trkpt lat="45.19853" lon="5.7276">
        <ele>406.472</ele>
        <time>2021-08-01T13:13:07Z</time>
      </trkpt>
      <trkpt lat="45.19853" lon="5.72761">
        <ele>406.804</ele>
        <time>2021-08-01T13:13:12Z</time>
      </trkpt>
      <trkpt lat="45.19854" lon="5.72763">
        <ele>406.892</ele>
        <time>2021-08-01T13:13:17Z</time>
      </trkpt>
      <trkpt lat="45.19854" lon="5.72763">
        <ele>406.859</ele>
        <time>2021-08-01T13:13:22Z</time>
      </trkpt>
      <trkpt lat="45.19854" lon="5.72763">
        <ele>406.855</ele>
        <time>2021-08-01T13:13:27Z</time>
      </trkpt>
      <trkpt lat="45.19857" lon="5.72777">
        <ele>399.75</ele>
        <time>2021-08-01T13:13:54Z</time>
      </trkpt>
      <trkpt lat="45.19859" lon="5.72773">
        <ele>394.429</ele>
        <time>2021-08-01T13:13:59Z</time>
      </trkpt>
      <trkpt lat="45.19855" lon="5.7277">
        <ele>392.03</ele>
        <time>2021-08-01T13:14:04Z</time>
      </trkpt>
      <trkpt lat="45.19853" lon="5.72766">
        <ele>391.189</ele>
        <time>2021-08-01T13:14:09Z</time>
      </trkpt>
      <trkpt lat="45.1985" lon="5.72765">
        <ele>390.148</ele>
        <time>2021-08-01T13:14:14Z</time>
      </trkpt>
      <trkpt lat="45.19848" lon="5.72766">
        <ele>388.19</ele>
        <time>2021-08-01T13:14:19Z</time>
      </trkpt>
      <trkpt lat="45.19851" lon="5.72773">
        <ele>385.4</ele>
        <time>2021-08-01T13:14:24Z</time>
      </trkpt>
      <trkpt lat="45.19856" lon="5.72777">
        <ele>385.552</ele>
        <time>2021-08-01T13:14:29Z</time>
      </trkpt>
      <trkpt lat="45.19856" lon="5.72785">
        <ele>384.815</ele>
        <time>2021-08-01T13:14:34Z</time>
      </trkpt>
      <trkpt lat="45.19857" lon="5.72787">
        <ele>384.292</ele>
        <time>2021-08-01T13:14:39Z</time>
      </trkpt>
      <trkpt lat="45.19862" lon="5.72791">
        <ele>383.125</ele>
        <time>2021-08-01T13:14:44Z</time>
      </trkpt>
      <trkpt lat="45.19864" lon="5.72797">
        <ele>383.132</ele>
        <time>2021-08-01T13:14:49Z</time>
      </trkpt>
      <trkpt lat="45.19861" lon="5.72794">
        <ele>381.661</ele>
        <time>2021-08-01T13:14:54Z</time>
      </trkpt>
      <trkpt lat="45.19858" lon="5.7279">
        <ele>381.707</ele>
        <time>2021-08-01T13:14:59Z</time>
      </trkpt>
      <trkpt lat="45.19855" lon="5.72787">
        <ele>380.519</ele>
        <time>2021-08-01T13:15:04Z</time>
      </trkpt>
      <trkpt lat="45.19853" lon="5.72785">
        <ele>379.398</ele>
        <time>2021-08-01T13:15:09Z</time>
      </trkpt>
      <trkpt lat="45.19849" lon="5.72786">
        <ele>378.837</ele>
        <time>2021-08-01T13:15:14Z</time>
      </trkpt>
      <trkpt lat="45.19854" lon="5.72792">
        <ele>373.929</ele>
        <time>2021-08-01T13:15:19Z</time>
      </trkpt>
      <trkpt lat="45.19859" lon="5.72797">
        <ele>373.821</ele>
        <time>2021-08-01T13:15:24Z</time>
      </trkpt>
      <trkpt lat="45.19859" lon="5.72803">
        <ele>372.711</ele>
        <time>2021-08-01T13:15:29Z</time>
      </trkpt>
      <trkpt lat="45.19858" lon="5.72806">
        <ele>373.18</ele>
        <time>2021-08-01T13:15:34Z</time>
      </trkpt>
      <trkpt lat="45.19858" lon="5.72809">
        <ele>370.691</ele>
        <time>2021-08-01T13:15:39Z</time>
      </trkpt>
      <trkpt lat="45.19857" lon="5.72812">
        <ele>368.732</ele>
        <time>2021-08-01T13:15:44Z</time>
      </trkpt>
      <trkpt lat="45.19855" lon="5.7281">
        <ele>368.043</ele>
        <time>2021-08-01T13:15:49Z</time>
      </trkpt>
      <trkpt lat="45.19854" lon="5.72807">
        <ele>368.482</ele>
        <time>2021-08-01T13:15:54Z</time>
      </trkpt>
      <trkpt lat="45.19849" lon="5.72803">
        <ele>371.037</ele>
        <time>2021-08-01T13:15:59Z</time>
      </trkpt>
      <trkpt lat="45.19843" lon="5.72803">
        <ele>371.003</ele>
        <time>2021-08-01T13:16:04Z</time>
      </trkpt>
      <trkpt lat="45.19838" lon="5.72801">
        <ele>369.556</ele>
        <time>2021-08-01T13:16:09Z</time>
      </trkpt>
      <trkpt lat="45.19832" lon="5.72796">
        <ele>368.196</ele>
        <time>2021-08-01T13:16:14Z</time>
      </trkpt>
      <trkpt lat="45.19828" lon="5.72791">
        <ele>366.898</ele>
        <time>2021-08-01T13:16:19Z</time>
      </trkpt>
      <trkpt lat="45.19822" lon="5.72788">
        <ele>366.079</ele>
        <time>2021-08-01T13:16:24Z</time>
      </trkpt>
      <trkpt lat="45.19818" lon="5.72786">
        <ele>365.515</ele>
        <time>2021-08-01T13:16:28Z</time>
      </trkpt>
      <trkpt lat="45.19811" lon="5.72781">
        <ele>365.464</ele>
        <time>2021-08-01T13:16:35Z</time>
      </trkpt>
      <trkpt lat="45.19801" lon="5.72774">
        <ele>363.528</ele>
        <time>2021-08-01T13:16:45Z</time>
      </trkpt>
      <trkpt lat="45.19809" lon="5.72786">
        <ele>360.885</ele>
        <time>2021-08-01T13:16:57Z</time>
      </trkpt>
      <trkpt lat="45.1981" lon="5.72787">
        <ele>359.496</ele>
        <time>2021-08-01T13:16:58Z</time>
      </trkpt>
      <trkpt lat="45.19828" lon="5.72805">
        <ele>355.916</ele>
        <time>2021-08-01T13:17:15Z</time>
      </trkpt>
      <trkpt lat="45.19831" lon="5.72808">
        <ele>355.86</ele>
        <time>2021-08-01T13:17:18Z</time>
      </trkpt>
      <trkpt lat="45.19825" lon="5.72815">
        <ele>352.892</ele>
        <time>2021-08-01T13:17:52Z</time>
      </trkpt>
      <trkpt lat="45.1982" lon="5.72811">
        <ele>352.364</ele>
        <time>2021-08-01T13:17:57Z</time>
      </trkpt>
      <trkpt lat="45.19816" lon="5.72813">
        <ele>349.971</ele>
        <time>2021-08-01T13:18:03Z</time>
      </trkpt>
      <trkpt lat="45.19828" lon="5.72826">
        <ele>348.338</ele>
        <time>2021-08-01T13:18:13Z</time>
      </trkpt>
      <trkpt lat="45.19824" lon="5.72827">
        <ele>341.089</ele>
        <time>2021-08-01T13:18:33Z</time>
      </trkpt>
      <trkpt lat="45.19818" lon="5.72824">
        <ele>341.72</ele>
        <time>2021-08-01T13:18:38Z</time>
      </trkpt>
      <trkpt lat="45.19812" lon="5.72818">
        <ele>342.174</ele>
        <time>2021-08-01T13:18:43Z</time>
      </trkpt>
      <trkpt lat="45.19807" lon="5.72814">
        <ele>342.001</ele>
        <time>2021-08-01T13:18:48Z</time>
      </trkpt>
      <trkpt lat="45.198" lon="5.7281">
        <ele>342.592</ele>
        <time>2021-08-01T13:18:53Z</time>
      </trkpt>
      <trkpt lat="45.19793" lon="5.72808">
        <ele>343.808</ele>
        <time>2021-08-01T13:18:58Z</time>
      </trkpt>
      <trkpt lat="45.19792" lon="5.72812">
        <ele>341.654</ele>
        <time>2021-08-01T13:19:03Z</time>
      </trkpt>
      <trkpt lat="45.19798" lon="5.72818">
        <ele>341.971</ele>
        <time>2021-08-01T13:19:08Z</time>
      </trkpt>
      <trkpt lat="45.19803" lon="5.72825">
        <ele>342.261</ele>
        <time>2021-08-01T13:19:13Z</time>
      </trkpt>
      <trkpt lat="45.19808" lon="5.72828">
        <ele>339.892</ele>
        <time>2021-08-01T13:19:18Z</time>
      </trkpt>
      <trkpt lat="45.19815" lon="5.72831">
        <ele>339.502</ele>
        <time>2021-08-01T13:19:23Z</time>
      </trkpt>
      <trkpt lat="45.19821" lon="5.72836">
        <ele>340.101</ele>
        <time>2021-08-01T13:19:28Z</time>
      </trkpt>
      <trkpt lat="45.19826" lon="5.7284">
        <ele>339.271</ele>
        <time>2021-08-01T13:19:33Z</time>
      </trkpt>
      <trkpt lat="45.19823" lon="5.72845">
        <ele>338.836</ele>
        <time>2021-08-01T13:19:38Z</time>
      </trkpt>
      <trkpt lat="45.19817" lon="5.7284">
        <ele>338.858</ele>
        <time>2021-08-01T13:19:43Z</time>
      </trkpt>
      <trkpt lat="45.1981" lon="5.72838">
        <ele>340.707</ele>
        <time>2021-08-01T13:19:48Z</time>
      </trkpt>
      <trkpt lat="45.19803" lon="5.72835">
        <ele>340.866</ele>
        <time>2021-08-01T13:19:53Z</time>
      </trkpt>
      <trkpt lat="45.19798" lon="5.72833">
        <ele>338.036</ele>
        <time>2021-08-01T13:19:58Z</time>
      </trkpt>
      <trkpt lat="45.19793" lon="5.72829">
        <ele>336.895</ele>
        <time>2021-08-01T13:20:03Z</time>
      </trkpt>
      <trkpt lat="45.19787" lon="5.72825">
        <ele>337.886</ele>
        <time>2021-08-01T13:20:08Z</time>
      </trkpt>
      <trkpt lat="45.19781" lon="5.72821">
        <ele>337.181</ele>
        <time>2021-08-01T13:20:13Z</time>
      </trkpt>
      <trkpt lat="45.19775" lon="5.72817">
        <ele>336.119</ele>
        <time>2021-08-01T13:20:18Z</time>
      </trkpt>
      <trkpt lat="45.19771" lon="5.72813">
        <ele>334.625</ele>
        <time>2021-08-01T13:20:23Z</time>
      </trkpt>
      <trkpt lat="45.19765" lon="5.72809">
        <ele>333.253</ele>
        <time>2021-08-01T13:20:28Z</time>
      </trkpt>
      <trkpt lat="45.19761" lon="5.72802">
        <ele>330.697</ele>
        <time>2021-08-01T13:20:33Z</time>
      </trkpt>
      <trkpt lat="45.19754" lon="5.728">
        <ele>330.302</ele>
        <time>2021-08-01T13:20:38Z</time>
      </trkpt>
      <trkpt lat="45.19756" lon="5.72808">
        <ele>326.626</ele>
        <time>2021-08-01T13:20:43Z</time>
      </trkpt>
      <trkpt lat="45.19762" lon="5.72816">
        <ele>326.83</ele>
        <time>2021-08-01T13:20:48Z</time>
      </trkpt>
      <trkpt lat="45.19767" lon="5.72822">
        <ele>326.498</ele>
        <time>2021-08-01T13:20:53Z</time>
      </trkpt>
      <trkpt lat="45.19773" lon="5.72827">
        <ele>325.98</ele>
        <time>2021-08-01T13:20:58Z</time>
      </trkpt>
      <trkpt lat="45.19777" lon="5.72834">
        <ele>326.034</ele>
        <time>2021-08-01T13:21:03Z</time>
      </trkpt>
      <trkpt lat="45.19781" lon="5.72838">
        <ele>322.224</ele>
        <time>2021-08-01T13:21:08Z</time>
      </trkpt>
      <trkpt lat="45.19786" lon="5.72843">
        <ele>320.757</ele>
        <time>2021-08-01T13:21:13Z</time>
      </trkpt>
      <trkpt lat="45.19791" lon="5.72849">
        <ele>321.904</ele>
        <time>2021-08-01T13:21:18Z</time>
      </trkpt>
      <trkpt lat="45.19796" lon="5.72856">
        <ele>322.962</ele>
        <time>2021-08-01T13:21:23Z</time>
      </trkpt>
      <trkpt lat="45.198" lon="5.72863">
        <ele>321.144</ele>
        <time>2021-08-01T13:21:28Z</time>
      </trkpt>
      <trkpt lat="45.19806" lon="5.72866">
        <ele>321.782</ele>
        <time>2021-08-01T13:21:33Z</time>
      </trkpt>
      <trkpt lat="45.19811" lon="5.72872">
        <ele>320.106</ele>
        <time>2021-08-01T13:21:38Z</time>
      </trkpt>
      <trkpt lat="45.19811" lon="5.72879">
        <ele>318.266</ele>
        <time>2021-08-01T13:21:43Z</time>
      </trkpt>
      <trkpt lat="45.19803" lon="5.72876">
        <ele>320.437</ele>
        <time>2021-08-01T13:21:48Z</time>
      </trkpt>
      <trkpt lat="45.19797" lon="5.72873">
        <ele>320.491</ele>
        <time>2021-08-01T13:21:53Z</time>
      </trkpt>
      <trkpt lat="45.1979" lon="5.7287">
        <ele>322.826</ele>
        <time>2021-08-01T13:21:58Z</time>
      </trkpt>
      <trkpt lat="45.19786" lon="5.72867">
        <ele>320.741</ele>
        <time>2021-08-01T13:22:03Z</time>
      </trkpt>
      <trkpt lat="45.1978" lon="5.72863">
        <ele>321.499</ele>
        <time>2021-08-01T13:22:08Z</time>
      </trkpt>
      <trkpt lat="45.19775" lon="5.7286">
        <ele>319.069</ele>
        <time>2021-08-01T13:22:13Z</time>
      </trkpt>
      <trkpt lat="45.1977" lon="5.72853">
        <ele>314.84</ele>
        <time>2021-08-01T13:22:18Z</time>
      </trkpt>
      <trkpt lat="45.19764" lon="5.7285">
        <ele>317.052</ele>
        <time>2021-08-01T13:22:23Z</time>
      </trkpt>
      <trkpt lat="45.19758" lon="5.72846">
        <ele>316.585</ele>
        <time>2021-08-01T13:22:28Z</time>
      </trkpt>
      <trkpt lat="45.19752" lon="5.72843">
        <ele>318.379</ele>
        <time>2021-08-01T13:22:33Z</time>
      </trkpt>
      <trkpt lat="45.19745" lon="5.72839">
        <ele>317.665</ele>
        <time>2021-08-01T13:22:38Z</time>
      </trkpt>
      <trkpt lat="45.19739" lon="5.72835">
        <ele>315.333</ele>
        <time>2021-08-01T13:22:43Z</time>
      </trkpt>
      <trkpt lat="45.19742" lon="5.72842">
        <ele>310.21</ele>
        <time>2021-08-01T13:22:48Z</time>
      </trkpt>
      <trkpt lat="45.19747" lon="5.72849">
        <ele>309.146</ele>
        <time>2021-08-01T13:22:53Z</time>
      </trkpt>
      <trkpt lat="45.19753" lon="5.72854">
        <ele>309.057</ele>
        <time>2021-08-01T13:22:58Z</time>
      </trkpt>
      <trkpt lat="45.19757" lon="5.72862">
        <ele>308.538</ele>
        <time>2021-08-01T13:23:03Z</time>
      </trkpt>
      <trkpt lat="45.19762" lon="5.72869">
        <ele>307.316</ele>
        <time>2021-08-01T13:23:08Z</time>
      </trkpt>
      <trkpt lat="45.19767" lon="5.72876">
        <ele>308.19</ele>
        <time>2021-08-01T13:23:13Z</time>
      </trkpt>
      <trkpt lat="45.19771" lon="5.72881">
        <ele>308.617</ele>
        <time>2021-08-01T13:23:18Z</time>
      </trkpt>
      <trkpt lat="45.19775" lon="5.72887">
        <ele>307.643</ele>
        <time>2021-08-01T13:23:23Z</time>
      </trkpt>
      <trkpt lat="45.19779" lon="5.72892">
        <ele>308.061</ele>
        <time>2021-08-01T13:23:28Z</time>
      </trkpt>
      <trkpt lat="45.19785" lon="5.72897">
        <ele>306.546</ele>
        <time>2021-08-01T13:23:34Z</time>
      </trkpt>
      <trkpt lat="45.19797" lon="5.72911">
        <ele>306.479</ele>
        <time>2021-08-01T13:23:45Z</time>
      </trkpt>
      <trkpt lat="45.19786" lon="5.72911">
        <ele>302.209</ele>
        <time>2021-08-01T13:24:07Z</time>
      </trkpt>
      <trkpt lat="45.19735" lon="5.72879">
        <ele>295.434</ele>
        <time>2021-08-01T13:24:53Z</time>
      </trkpt>
      <trkpt lat="45.19727" lon="5.7291">
        <ele>283.129</ele>
        <time>2021-08-01T13:26:17Z</time>
      </trkpt>
      <trkpt lat="45.19728" lon="5.72914">
        <ele>282.541</ele>
        <time>2021-08-01T13:26:20Z</time>
      </trkpt>
      <trkpt lat="45.19729" lon="5.72915">
        <ele>282.492</ele>
        <time>2021-08-01T13:26:21Z</time>
      </trkpt>
      <trkpt lat="45.19731" lon="5.72916">
        <ele>282.002</ele>
        <time>2021-08-01T13:26:22Z</time>
      </trkpt>
      <trkpt lat="45.19781" lon="5.73019">
        <ele>260.962</ele>
        <time>2021-08-01T13:29:03Z</time>
      </trkpt>
      <trkpt lat="45.19785" lon="5.73021">
        <ele>261.434</ele>
        <time>2021-08-01T13:29:08Z</time>
      </trkpt>
      <trkpt lat="45.19791" lon="5.73025">
        <ele>264.406</ele>
        <time>2021-08-01T13:29:13Z</time>
      </trkpt>
      <trkpt lat="45.19794" lon="5.73026">
        <ele>260.165</ele>
        <time>2021-08-01T13:29:18Z</time>
      </trkpt>
      <trkpt lat="45.198" lon="5.7303">
        <ele>257.681</ele>
        <time>2021-08-01T13:29:23Z</time>
      </trkpt>
      <trkpt lat="45.19805" lon="5.73033">
        <ele>256.746</ele>
        <time>2021-08-01T13:29:28Z</time>
      </trkpt>
      <trkpt lat="45.19808" lon="5.7304">
        <ele>256.274</ele>
        <time>2021-08-01T13:29:33Z</time>
      </trkpt>
      <trkpt lat="45.19801" lon="5.73038">
        <ele>256.085</ele>
        <time>2021-08-01T13:29:38Z</time>
      </trkpt>
      <trkpt lat="45.19796" lon="5.73036">
        <ele>255.61</ele>
        <time>2021-08-01T13:29:43Z</time>
      </trkpt>
      <trkpt lat="45.19791" lon="5.73033">
        <ele>253.621</ele>
        <time>2021-08-01T13:29:48Z</time>
      </trkpt>
      <trkpt lat="45.19785" lon="5.7303">
        <ele>254.467</ele>
        <time>2021-08-01T13:29:53Z</time>
      </trkpt>
      <trkpt lat="45.19779" lon="5.73029">
        <ele>253.434</ele>
        <time>2021-08-01T13:29:58Z</time>
      </trkpt>
      <trkpt lat="45.19773" lon="5.73031">
        <ele>253.187</ele>
        <time>2021-08-01T13:30:03Z</time>
      </trkpt>
      <trkpt lat="45.19768" lon="5.73031">
        <ele>253.257</ele>
        <time>2021-08-01T13:30:08Z</time>
      </trkpt>
      <trkpt lat="45.19764" lon="5.7303">
        <ele>252.96</ele>
        <time>2021-08-01T13:30:13Z</time>
      </trkpt>
      <trkpt lat="45.1976" lon="5.73028">
        <ele>251.995</ele>
        <time>2021-08-01T13:30:18Z</time>
      </trkpt>
      <trkpt lat="45.19756" lon="5.73027">
        <ele>251.015</ele>
        <time>2021-08-01T13:30:22Z</time>
      </trkpt>
      <trkpt lat="45.19758" lon="5.73029">
        <ele>251.318</ele>
        <time>2021-08-01T13:30:29Z</time>
      </trkpt>
      <trkpt lat="45.19761" lon="5.73034">
        <ele>249.786</ele>
        <time>2021-08-01T13:30:33Z</time>
      </trkpt>
      <trkpt lat="45.19766" lon="5.73036">
        <ele>248.63</ele>
        <time>2021-08-01T13:30:37Z</time>
      </trkpt>
      <trkpt lat="45.19772" lon="5.7304">
        <ele>247.347</ele>
        <time>2021-08-01T13:30:42Z</time>
      </trkpt>
      <trkpt lat="45.19787" lon="5.73049">
        <ele>248.268</ele>
        <time>2021-08-01T13:30:53Z</time>
      </trkpt>
      <trkpt lat="45.19799" lon="5.73055">
        <ele>245.321</ele>
        <time>2021-08-01T13:31:06Z</time>
      </trkpt>
      <trkpt lat="45.19792" lon="5.7306">
        <ele>243.764</ele>
        <time>2021-08-01T13:31:19Z</time>
      </trkpt>
      <trkpt lat="45.19774" lon="5.73055">
        <ele>245.713</ele>
        <time>2021-08-01T13:31:32Z</time>
      </trkpt>
      <trkpt lat="45.19772" lon="5.73054">
        <ele>246.722</ele>
        <time>2021-08-01T13:31:33Z</time>
      </trkpt>
      <trkpt lat="45.19751" lon="5.73059">
        <ele>240.509</ele>
        <time>2021-08-01T13:31:55Z</time>
      </trkpt>
      <trkpt lat="45.19755" lon="5.73061">
        <ele>240.946</ele>
        <time>2021-08-01T13:31:57Z</time>
      </trkpt>
      <trkpt lat="45.19796" lon="5.73084">
        <ele>233.84</ele>
        <time>2021-08-01T13:32:29Z</time>
      </trkpt>
      <trkpt lat="45.19798" lon="5.73085">
        <ele>232.301</ele>
        <time>2021-08-01T13:32:31Z</time>
      </trkpt>
      <trkpt lat="45.19799" lon="5.73085">
        <ele>231.577</ele>
        <time>2021-08-01T13:32:32Z</time>
      </trkpt>
      <trkpt lat="45.19804" lon="5.73104">
        <ele>231.23</ele>
        <time>2021-08-01T13:32:46Z</time>
      </trkpt>
      <trkpt lat="45.19793" lon="5.73105">
        <ele>229.186</ele>
        <time>2021-08-01T13:33:12Z</time>
      </trkpt>
      <trkpt lat="45.19791" lon="5.73097">
        <ele>229.096</ele>
        <time>2021-08-01T13:33:17Z</time>
      </trkpt>
      <trkpt lat="45.19791" lon="5.73096">
        <ele>229.067</ele>
        <time>2021-08-01T13:33:18Z</time>
      </trkpt>
      <trkpt lat="45.19766" lon="5.73086">
        <ele>226.726</ele>
        <time>2021-08-01T13:33:40Z</time>
      </trkpt>
      <trkpt lat="45.19774" lon="5.73104">
        <ele>230.698</ele>
        <time>2021-08-01T13:34:04Z</time>
      </trkpt>
      <trkpt lat="45.19778" lon="5.73108">
        <ele>230.258</ele>
        <time>2021-08-01T13:34:09Z</time>
      </trkpt>
      <trkpt lat="45.19779" lon="5.73107">
        <ele>230.202</ele>
        <time>2021-08-01T13:34:10Z</time>
      </trkpt>
      <trkpt lat="45.19777" lon="5.73143">
        <ele>214.639</ele>
        <time>2021-08-01T13:34:55Z</time>
      </trkpt>
      <trkpt lat="45.19768" lon="5.73171">
        <ele>213.494</ele>
        <time>2021-08-01T13:35:39Z</time>
      </trkpt>
      <trkpt lat="45.19768" lon="5.7317">
        <ele>213.531</ele>
        <time>2021-08-01T13:35:53Z</time>
      </trkpt>
      <trkpt lat="45.1977" lon="5.73176">
        <ele>216.215</ele>
        <time>2021-08-01T13:37:57Z</time>
      </trkpt>
      <trkpt lat="45.19772" lon="5.73178">
        <ele>216.768</ele>
        <time>2021-08-01T13:38:02Z</time>
      </trkpt>
      <trkpt lat="45.19773" lon="5.73182">
        <ele>216.161</ele>
        <time>2021-08-01T13:38:07Z</time>
      </trkpt>
      <trkpt lat="45.19774" lon="5.73182">
        <ele>215.388</ele>
        <time>2021-08-01T13:38:12Z</time>
      </trkpt>
      <trkpt lat="45.19774" lon="5.73181">
        <ele>215.089</ele>
        <time>2021-08-01T13:38:17Z</time>
      </trkpt>
      <trkpt lat="45.19775" lon="5.73189">
        <ele>214.862</ele>
        <time>2021-08-01T13:38:22Z</time>
      </trkpt>
      <trkpt lat="45.1978" lon="5.73187">
        <ele>213.019</ele>
        <time>2021-08-01T13:38:27Z</time>
      </trkpt>
      <trkpt lat="45.19785" lon="5.73175">
        <ele>212.621</ele>
        <time>2021-08-01T13:38:32Z</time>
      </trkpt>
      <trkpt lat="45.19798" lon="5.73171">
        <ele>214.451</ele>
        <time>2021-08-01T13:38:38Z</time>
      </trkpt>
      <trkpt lat="45.19807" lon="5.73176">
        <ele>215.505</ele>
        <time>2021-08-01T13:38:44Z</time>
      </trkpt>
      <trkpt lat="45.19804" lon="5.7317">
        <ele>214.987</ele>
        <time>2021-08-01T13:38:50Z</time>
      </trkpt>
      <trkpt lat="45.19794" lon="5.73172">
        <ele>211.914</ele>
        <time>2021-08-01T13:38:55Z</time>
      </trkpt>
      <trkpt lat="45.1978" lon="5.7318">
        <ele>216.402</ele>
        <time>2021-08-01T13:39:00Z</time>
      </trkpt>
      <trkpt lat="45.19774" lon="5.73198">
        <ele>214.722</ele>
        <time>2021-08-01T13:39:05Z</time>
      </trkpt>
      <trkpt lat="45.19769" lon="5.73211">
        <ele>214.005</ele>
        <time>2021-08-01T13:39:10Z</time>
      </trkpt>
      <trkpt lat="45.19763" lon="5.73225">
        <ele>214.199</ele>
        <time>2021-08-01T13:39:16Z</time>
      </trkpt>
      <trkpt lat="45.19757" lon="5.73234">
        <ele>213.986</ele>
        <time>2021-08-01T13:39:22Z</time>
      </trkpt>
      <trkpt lat="45.19745" lon="5.73234">
        <ele>214.463</ele>
        <time>2021-08-01T13:39:28Z</time>
      </trkpt>
      <trkpt lat="45.19727" lon="5.73225">
        <ele>213.706</ele>
        <time>2021-08-01T13:39:34Z</time>
      </trkpt>
      <trkpt lat="45.19706" lon="5.73208">
        <ele>213.567</ele>
        <time>2021-08-01T13:39:40Z</time>
      </trkpt>
      <trkpt lat="45.19685" lon="5.73188">
        <ele>213.067</ele>
        <time>2021-08-01T13:39:46Z</time>
      </trkpt>
      <trkpt lat="45.19665" lon="5.73168">
        <ele>212.895</ele>
        <time>2021-08-01T13:39:52Z</time>
      </trkpt>
      <trkpt lat="45.1964" lon="5.73138">
        <ele>212.731</ele>
        <time>2021-08-01T13:40:00Z</time>
      </trkpt>
      <trkpt lat="45.19617" lon="5.73106">
        <ele>213.605</ele>
        <time>2021-08-01T13:40:08Z</time>
      </trkpt>
      <trkpt lat="45.19595" lon="5.73072">
        <ele>214.806</ele>
        <time>2021-08-01T13:40:16Z</time>
      </trkpt>
      <trkpt lat="45.19571" lon="5.73034">
        <ele>215.864</ele>
        <time>2021-08-01T13:40:25Z</time>
      </trkpt>
      <trkpt lat="45.19559" lon="5.73014">
        <ele>216.174</ele>
        <time>2021-08-01T13:40:30Z</time>
      </trkpt>
      <trkpt lat="45.19549" lon="5.73">
        <ele>216.553</ele>
        <time>2021-08-01T13:40:35Z</time>
      </trkpt>
      <trkpt lat="45.19539" lon="5.72985">
        <ele>216.531</ele>
        <time>2021-08-01T13:40:40Z</time>
      </trkpt>
      <trkpt lat="45.19527" lon="5.72965">
        <ele>216.625</ele>
        <time>2021-08-01T13:40:45Z</time>
      </trkpt>
      <trkpt lat="45.19512" lon="5.72943">
        <ele>216.536</ele>
        <time>2021-08-01T13:40:50Z</time>
      </trkpt>
      <trkpt lat="45.19498" lon="5.72918">
        <ele>216.777</ele>
        <time>2021-08-01T13:40:55Z</time>
      </trkpt>
      <trkpt lat="45.19482" lon="5.72896">
        <ele>215.982</ele>
        <time>2021-08-01T13:41:00Z</time>
      </trkpt>
      <trkpt lat="45.19471" lon="5.7288">
        <ele>216.342</ele>
        <time>2021-08-01T13:41:05Z</time>
      </trkpt>
      <trkpt lat="45.19464" lon="5.72884">
        <ele>215.518</ele>
        <time>2021-08-01T13:41:10Z</time>
      </trkpt>
      <trkpt lat="45.19453" lon="5.72893">
        <ele>214.954</ele>
        <time>2021-08-01T13:41:15Z</time>
      </trkpt>
      <trkpt lat="45.19442" lon="5.72907">
        <ele>214.927</ele>
        <time>2021-08-01T13:41:20Z</time>
      </trkpt>
      <trkpt lat="45.1943" lon="5.7292">
        <ele>214.589</ele>
        <time>2021-08-01T13:41:25Z</time>
      </trkpt>
      <trkpt lat="45.19418" lon="5.72935">
        <ele>214.943</ele>
        <time>2021-08-01T13:41:30Z</time>
      </trkpt>
      <trkpt lat="45.1941" lon="5.72943">
        <ele>214.35</ele>
        <time>2021-08-01T13:41:35Z</time>
      </trkpt>
      <trkpt lat="45.19403" lon="5.72952">
        <ele>213.477</ele>
        <time>2021-08-01T13:41:40Z</time>
      </trkpt>
      <trkpt lat="45.19393" lon="5.72965">
        <ele>213.056</ele>
        <time>2021-08-01T13:41:45Z</time>
      </trkpt>
      <trkpt lat="45.19379" lon="5.72978">
        <ele>212.345</ele>
        <time>2021-08-01T13:41:50Z</time>
      </trkpt>
      <trkpt lat="45.19365" lon="5.72993">
        <ele>214.632</ele>
        <time>2021-08-01T13:41:55Z</time>
      </trkpt>
      <trkpt lat="45.19356" lon="5.73008">
        <ele>213.606</ele>
        <time>2021-08-01T13:42:00Z</time>
      </trkpt>
      <trkpt lat="45.19356" lon="5.73032">
        <ele>215.62</ele>
        <time>2021-08-01T13:42:05Z</time>
      </trkpt>
      <trkpt lat="45.19354" lon="5.73056">
        <ele>216.733</ele>
        <time>2021-08-01T13:42:10Z</time>
      </trkpt>
      <trkpt lat="45.1935" lon="5.73076">
        <ele>216.223</ele>
        <time>2021-08-01T13:42:15Z</time>
      </trkpt>
      <trkpt lat="45.19344" lon="5.73098">
        <ele>214.266</ele>
        <time>2021-08-01T13:42:20Z</time>
      </trkpt>
      <trkpt lat="45.19339" lon="5.7312">
        <ele>215.065</ele>
        <time>2021-08-01T13:42:25Z</time>
      </trkpt>
      <trkpt lat="45.19332" lon="5.73135">
        <ele>212.952</ele>
        <time>2021-08-01T13:42:30Z</time>
      </trkpt>
      <trkpt lat="45.19329" lon="5.73142">
        <ele>210.749</ele>
        <time>2021-08-01T13:42:35Z</time>
      </trkpt>
      <trkpt lat="45.19322" lon="5.73152">
        <ele>211.34</ele>
        <time>2021-08-01T13:42:40Z</time>
      </trkpt>
      <trkpt lat="45.19319" lon="5.73163">
        <ele>211.641</ele>
        <time>2021-08-01T13:42:45Z</time>
      </trkpt>
      <trkpt lat="45.19316" lon="5.73177">
        <ele>211.999</ele>
        <time>2021-08-01T13:42:50Z</time>
      </trkpt>
      <trkpt lat="45.1932" lon="5.73195">
        <ele>213.885</ele>
        <time>2021-08-01T13:42:55Z</time>
      </trkpt>
      <trkpt lat="45.19316" lon="5.73212">
        <ele>214.891</ele>
        <time>2021-08-01T13:43:00Z</time>
      </trkpt>
      <trkpt lat="45.19306" lon="5.73234">
        <ele>214.98</ele>
        <time>2021-08-01T13:43:05Z</time>
      </trkpt>
      <trkpt lat="45.19296" lon="5.7326">
        <ele>216.318</ele>
        <time>2021-08-01T13:43:10Z</time>
      </trkpt>
      <trkpt lat="45.19281" lon="5.73287">
        <ele>215.847</ele>
        <time>2021-08-01T13:43:15Z</time>
      </trkpt>
      <trkpt lat="45.19264" lon="5.73311">
        <ele>215.38</ele>
        <time>2021-08-01T13:43:20Z</time>
      </trkpt>
      <trkpt lat="45.19249" lon="5.73337">
        <ele>215.993</ele>
        <time>2021-08-01T13:43:25Z</time>
      </trkpt>
      <trkpt lat="45.19239" lon="5.73363">
        <ele>217.494</ele>
        <time>2021-08-01T13:43:30Z</time>
      </trkpt>
      <trkpt lat="45.19231" lon="5.73391">
        <ele>215.554</ele>
        <time>2021-08-01T13:43:35Z</time>
      </trkpt>
      <trkpt lat="45.19223" lon="5.73415">
        <ele>216.432</ele>
        <time>2021-08-01T13:43:40Z</time>
      </trkpt>
      <trkpt lat="45.19217" lon="5.73439">
        <ele>216.912</ele>
        <time>2021-08-01T13:43:45Z</time>
      </trkpt>
      <trkpt lat="45.19209" lon="5.73461">
        <ele>218.987</ele>
        <time>2021-08-01T13:43:50Z</time>
      </trkpt>
      <trkpt lat="45.19204" lon="5.73477">
        <ele>215.388</ele>
        <time>2021-08-01T13:43:55Z</time>
      </trkpt>
      <trkpt lat="45.19194" lon="5.73488">
        <ele>214.751</ele>
        <time>2021-08-01T13:44:00Z</time>
      </trkpt>
      <trkpt lat="45.19178" lon="5.73501">
        <ele>213.937</ele>
        <time>2021-08-01T13:44:05Z</time>
      </trkpt>
      <trkpt lat="45.1916" lon="5.73515">
        <ele>214.289</ele>
        <time>2021-08-01T13:44:10Z</time>
      </trkpt>
      <trkpt lat="45.19143" lon="5.73528">
        <ele>213.27</ele>
        <time>2021-08-01T13:44:15Z</time>
      </trkpt>
      <trkpt lat="45.19125" lon="5.73541">
        <ele>213.422</ele>
        <time>2021-08-01T13:44:20Z</time>
      </trkpt>
      <trkpt lat="45.19108" lon="5.73555">
        <ele>212.774</ele>
        <time>2021-08-01T13:44:25Z</time>
      </trkpt>
      <trkpt lat="45.19091" lon="5.73569">
        <ele>212.563</ele>
        <time>2021-08-01T13:44:30Z</time>
      </trkpt>
      <trkpt lat="45.19084" lon="5.73575">
        <ele>212.529</ele>
        <time>2021-08-01T13:44:35Z</time>
      </trkpt>
      <trkpt lat="45.19085" lon="5.73575">
        <ele>213.529</ele>
        <time>2021-08-01T13:44:40Z</time>
      </trkpt>
      <trkpt lat="45.1908" lon="5.73576">
        <ele>214.369</ele>
        <time>2021-08-01T13:44:45Z</time>
      </trkpt>
      <trkpt lat="45.19068" lon="5.73588">
        <ele>212.528</ele>
        <time>2021-08-01T13:44:50Z</time>
      </trkpt>
      <trkpt lat="45.19048" lon="5.73601">
        <ele>212.065</ele>
        <time>2021-08-01T13:44:55Z</time>
      </trkpt>
      <trkpt lat="45.19034" lon="5.73615">
        <ele>212.264</ele>
        <time>2021-08-01T13:45:00Z</time>
      </trkpt>
      <trkpt lat="45.19021" lon="5.73627">
        <ele>212.879</ele>
        <time>2021-08-01T13:45:05Z</time>
      </trkpt>
      <trkpt lat="45.19004" lon="5.73638">
        <ele>212.865</ele>
        <time>2021-08-01T13:45:10Z</time>
      </trkpt>
      <trkpt lat="45.18986" lon="5.73652">
        <ele>213.329</ele>
        <time>2021-08-01T13:45:15Z</time>
      </trkpt>
      <trkpt lat="45.18968" lon="5.73667">
        <ele>213.393</ele>
        <time>2021-08-01T13:45:20Z</time>
      </trkpt>
      <trkpt lat="45.18949" lon="5.73682">
        <ele>214.243</ele>
        <time>2021-08-01T13:45:25Z</time>
      </trkpt>
      <trkpt lat="45.18932" lon="5.73697">
        <ele>215.802</ele>
        <time>2021-08-01T13:45:30Z</time>
      </trkpt>
      <trkpt lat="45.18913" lon="5.73711">
        <ele>217.692</ele>
        <time>2021-08-01T13:45:35Z</time>
      </trkpt>
      <trkpt lat="45.18898" lon="5.73723">
        <ele>214.309</ele>
        <time>2021-08-01T13:45:40Z</time>
      </trkpt>
      <trkpt lat="45.18881" lon="5.73736">
        <ele>213.67</ele>
        <time>2021-08-01T13:45:45Z</time>
      </trkpt>
      <trkpt lat="45.18863" lon="5.73751">
        <ele>212.405</ele>
        <time>2021-08-01T13:45:50Z</time>
      </trkpt>
      <trkpt lat="45.18843" lon="5.73765">
        <ele>213.58</ele>
        <time>2021-08-01T13:45:55Z</time>
      </trkpt>
      <trkpt lat="45.18826" lon="5.7378">
        <ele>212.601</ele>
        <time>2021-08-01T13:46:00Z</time>
      </trkpt>
      <trkpt lat="45.18808" lon="5.73796">
        <ele>213.07</ele>
        <time>2021-08-01T13:46:05Z</time>
      </trkpt>
      <trkpt lat="45.18793" lon="5.73808">
        <ele>214.021</ele>
        <time>2021-08-01T13:46:10Z</time>
      </trkpt>
      <trkpt lat="45.18787" lon="5.73811">
        <ele>215.354</ele>
        <time>2021-08-01T13:46:15Z</time>
      </trkpt>
      <trkpt lat="45.18777" lon="5.73817">
        <ele>215.92</ele>
        <time>2021-08-01T13:46:20Z</time>
      </trkpt>
      <trkpt lat="45.18765" lon="5.73826">
        <ele>215.476</ele>
        <time>2021-08-01T13:46:25Z</time>
      </trkpt>
      <trkpt lat="45.1876" lon="5.73844">
        <ele>215.213</ele>
        <time>2021-08-01T13:46:30Z</time>
      </trkpt>
      <trkpt lat="45.18772" lon="5.73861">
        <ele>216.351</ele>
        <time>2021-08-01T13:46:35Z</time>
      </trkpt>
      <trkpt lat="45.18781" lon="5.7388">
        <ele>216.303</ele>
        <time>2021-08-01T13:46:40Z</time>
      </trkpt>
      <trkpt lat="45.18789" lon="5.73899">
        <ele>215.539</ele>
        <time>2021-08-01T13:46:45Z</time>
      </trkpt>
      <trkpt lat="45.18798" lon="5.73921">
        <ele>214.942</ele>
        <time>2021-08-01T13:46:50Z</time>
      </trkpt>
      <trkpt lat="45.18808" lon="5.73944">
        <ele>216.103</ele>
        <time>2021-08-01T13:46:55Z</time>
      </trkpt>
      <trkpt lat="45.18817" lon="5.73967">
        <ele>215.992</ele>
        <time>2021-08-01T13:47:00Z</time>
      </trkpt>
      <trkpt lat="45.18826" lon="5.73991">
        <ele>216.247</ele>
        <time>2021-08-01T13:47:05Z</time>
      </trkpt>
      <trkpt lat="45.18836" lon="5.74014">
        <ele>216.701</ele>
        <time>2021-08-01T13:47:10Z</time>
      </trkpt>
      <trkpt lat="45.18846" lon="5.74036">
        <ele>215.956</ele>
        <time>2021-08-01T13:47:15Z</time>
      </trkpt>
      <trkpt lat="45.1886" lon="5.74042">
        <ele>215.259</ele>
        <time>2021-08-01T13:47:20Z</time>
      </trkpt>
      <trkpt lat="45.18865" lon="5.74061">
        <ele>215.25</ele>
        <time>2021-08-01T13:47:25Z</time>
      </trkpt>
      <trkpt lat="45.18872" lon="5.74079">
        <ele>215.86</ele>
        <time>2021-08-01T13:47:30Z</time>
      </trkpt>
      <trkpt lat="45.18879" lon="5.74099">
        <ele>216.599</ele>
        <time>2021-08-01T13:47:35Z</time>
      </trkpt>
      <trkpt lat="45.18877" lon="5.74121">
        <ele>217.201</ele>
        <time>2021-08-01T13:47:40Z</time>
      </trkpt>
      <trkpt lat="45.18874" lon="5.74147">
        <ele>219.119</ele>
        <time>2021-08-01T13:47:45Z</time>
      </trkpt>
      <trkpt lat="45.18866" lon="5.74176">
        <ele>219.155</ele>
        <time>2021-08-01T13:47:50Z</time>
      </trkpt>
      <trkpt lat="45.18854" lon="5.74207">
        <ele>217.08</ele>
        <time>2021-08-01T13:47:55Z</time>
      </trkpt>
      <trkpt lat="45.1884" lon="5.74238">
        <ele>215.807</ele>
        <time>2021-08-01T13:48:00Z</time>
      </trkpt>
      <trkpt lat="45.18827" lon="5.74268">
        <ele>215.008</ele>
        <time>2021-08-01T13:48:05Z</time>
      </trkpt>
      <trkpt lat="45.18822" lon="5.743">
        <ele>215.073</ele>
        <time>2021-08-01T13:48:10Z</time>
      </trkpt>
      <trkpt lat="45.18826" lon="5.74333">
        <ele>217.604</ele>
        <time>2021-08-01T13:48:15Z</time>
      </trkpt>
      <trkpt lat="45.18833" lon="5.74363">
        <ele>217.244</ele>
        <time>2021-08-01T13:48:20Z</time>
      </trkpt>
      <trkpt lat="45.18837" lon="5.74394">
        <ele>214.758</ele>
        <time>2021-08-01T13:48:25Z</time>
      </trkpt>
      <trkpt lat="45.18838" lon="5.74424">
        <ele>215.286</ele>
        <time>2021-08-01T13:48:30Z</time>
      </trkpt>
      <trkpt lat="45.18843" lon="5.74448">
        <ele>215.526</ele>
        <time>2021-08-01T13:48:35Z</time>
      </trkpt>
      <trkpt lat="45.18851" lon="5.74451">
        <ele>215.581</ele>
        <time>2021-08-01T13:48:40Z</time>
      </trkpt>
      <trkpt lat="45.18866" lon="5.74455">
        <ele>215.899</ele>
        <time>2021-08-01T13:48:45Z</time>
      </trkpt>
      <trkpt lat="45.18871" lon="5.74464">
        <ele>216.072</ele>
        <time>2021-08-01T13:48:50Z</time>
      </trkpt>
      <trkpt lat="45.18864" lon="5.74483">
        <ele>216.406</ele>
        <time>2021-08-01T13:48:55Z</time>
      </trkpt>
      <trkpt lat="45.18858" lon="5.74508">
        <ele>216.442</ele>
        <time>2021-08-01T13:49:00Z</time>
      </trkpt>
      <trkpt lat="45.18855" lon="5.74531">
        <ele>215.892</ele>
        <time>2021-08-01T13:49:05Z</time>
      </trkpt>
      <trkpt lat="45.18851" lon="5.74557">
        <ele>217.619</ele>
        <time>2021-08-01T13:49:10Z</time>
      </trkpt>
      <trkpt lat="45.18849" lon="5.74586">
        <ele>218.837</ele>
        <time>2021-08-01T13:49:15Z</time>
      </trkpt>
      <trkpt lat="45.18844" lon="5.74614">
        <ele>219.008</ele>
        <time>2021-08-01T13:49:20Z</time>
      </trkpt>
      <trkpt lat="45.18842" lon="5.74644">
        <ele>219.797</ele>
        <time>2021-08-01T13:49:25Z</time>
      </trkpt>
      <trkpt lat="45.18843" lon="5.74674">
        <ele>219.113</ele>
        <time>2021-08-01T13:49:30Z</time>
      </trkpt>
      <trkpt lat="45.18842" lon="5.74708">
        <ele>219.248</ele>
        <time>2021-08-01T13:49:35Z</time>
      </trkpt>
      <trkpt lat="45.1884" lon="5.74741">
        <ele>218.289</ele>
        <time>2021-08-01T13:49:40Z</time>
      </trkpt>
      <trkpt lat="45.18838" lon="5.74774">
        <ele>215.654</ele>
        <time>2021-08-01T13:49:45Z</time>
      </trkpt>
      <trkpt lat="45.18839" lon="5.74808">
        <ele>215.004</ele>
        <time>2021-08-01T13:49:50Z</time>
      </trkpt>
      <trkpt lat="45.18841" lon="5.74839">
        <ele>217.492</ele>
        <time>2021-08-01T13:49:55Z</time>
      </trkpt>
      <trkpt lat="45.18841" lon="5.74869">
        <ele>215.656</ele>
        <time>2021-08-01T13:50:00Z</time>
      </trkpt>
      <trkpt lat="45.18844" lon="5.749">
        <ele>217.08</ele>
        <time>2021-08-01T13:50:05Z</time>
      </trkpt>
      <trkpt lat="45.18848" lon="5.74931">
        <ele>217.032</ele>
        <time>2021-08-01T13:50:10Z</time>
      </trkpt>
      <trkpt lat="45.18854" lon="5.7496">
        <ele>218.555</ele>
        <time>2021-08-01T13:50:15Z</time>
      </trkpt>
      <trkpt lat="45.18862" lon="5.74987">
        <ele>217.946</ele>
        <time>2021-08-01T13:50:20Z</time>
      </trkpt>
      <trkpt lat="45.1887" lon="5.75013">
        <ele>218.57</ele>
        <time>2021-08-01T13:50:25Z</time>
      </trkpt>
      <trkpt lat="45.18882" lon="5.75038">
        <ele>219.559</ele>
        <time>2021-08-01T13:50:30Z</time>
      </trkpt>
      <trkpt lat="45.18896" lon="5.7506">
        <ele>219.498</ele>
        <time>2021-08-01T13:50:35Z</time>
      </trkpt>
      <trkpt lat="45.1891" lon="5.75081">
        <ele>216.753</ele>
        <time>2021-08-01T13:50:40Z</time>
      </trkpt>
      <trkpt lat="45.18921" lon="5.75108">
        <ele>214.316</ele>
        <time>2021-08-01T13:50:45Z</time>
      </trkpt>
      <trkpt lat="45.18919" lon="5.7513">
        <ele>212.745</ele>
        <time>2021-08-01T13:50:50Z</time>
      </trkpt>
      <trkpt lat="45.18898" lon="5.75128">
        <ele>213.111</ele>
        <time>2021-08-01T13:50:55Z</time>
      </trkpt>
      <trkpt lat="45.18874" lon="5.75137">
        <ele>213.356</ele>
        <time>2021-08-01T13:51:00Z</time>
      </trkpt>
      <trkpt lat="45.18852" lon="5.75147">
        <ele>213.005</ele>
        <time>2021-08-01T13:51:05Z</time>
      </trkpt>
      <trkpt lat="45.1883" lon="5.75159">
        <ele>213.083</ele>
        <time>2021-08-01T13:51:10Z</time>
      </trkpt>
      <trkpt lat="45.18813" lon="5.7517">
        <ele>213.984</ele>
        <time>2021-08-01T13:51:15Z</time>
      </trkpt>
      <trkpt lat="45.18803" lon="5.75178">
        <ele>214.797</ele>
        <time>2021-08-01T13:51:20Z</time>
      </trkpt>
      <trkpt lat="45.18798" lon="5.75186">
        <ele>215.011</ele>
        <time>2021-08-01T13:51:25Z</time>
      </trkpt>
      <trkpt lat="45.18787" lon="5.75193">
        <ele>215.36</ele>
        <time>2021-08-01T13:51:30Z</time>
      </trkpt>
      <trkpt lat="45.18777" lon="5.75192">
        <ele>215.534</ele>
        <time>2021-08-01T13:51:35Z</time>
      </trkpt>
      <trkpt lat="45.18765" lon="5.75206">
        <ele>216.122</ele>
        <time>2021-08-01T13:51:40Z</time>
      </trkpt>
      <trkpt lat="45.18748" lon="5.75217">
        <ele>215.622</ele>
        <time>2021-08-01T13:51:45Z</time>
      </trkpt>
      <trkpt lat="45.18727" lon="5.75229">
        <ele>215</ele>
        <time>2021-08-01T13:51:50Z</time>
      </trkpt>
      <trkpt lat="45.18707" lon="5.75251">
        <ele>214.028</ele>
        <time>2021-08-01T13:51:55Z</time>
      </trkpt>
      <trkpt lat="45.18694" lon="5.75275">
        <ele>215.458</ele>
        <time>2021-08-01T13:52:00Z</time>
      </trkpt>
      <trkpt lat="45.18684" lon="5.75304">
        <ele>215.67</ele>
        <time>2021-08-01T13:52:05Z</time>
      </trkpt>
      <trkpt lat="45.18676" lon="5.75336">
        <ele>215.209</ele>
        <time>2021-08-01T13:52:10Z</time>
      </trkpt>
      <trkpt lat="45.18668" lon="5.75367">
        <ele>214.316</ele>
        <time>2021-08-01T13:52:15Z</time>
      </trkpt>
      <trkpt lat="45.18662" lon="5.75395">
        <ele>215.056</ele>
        <time>2021-08-01T13:52:20Z</time>
      </trkpt>
      <trkpt lat="45.18648" lon="5.75408">
        <ele>216.102</ele>
        <time>2021-08-01T13:52:25Z</time>
      </trkpt>
      <trkpt lat="45.18627" lon="5.75397">
        <ele>214.702</ele>
        <time>2021-08-01T13:52:30Z</time>
      </trkpt>
      <trkpt lat="45.18603" lon="5.75399">
        <ele>215.156</ele>
        <time>2021-08-01T13:52:35Z</time>
      </trkpt>
      <trkpt lat="45.1858" lon="5.75402">
        <ele>215.749</ele>
        <time>2021-08-01T13:52:40Z</time>
      </trkpt>
      <trkpt lat="45.18558" lon="5.75404">
        <ele>215.957</ele>
        <time>2021-08-01T13:52:45Z</time>
      </trkpt>
      <trkpt lat="45.18536" lon="5.754">
        <ele>216.219</ele>
        <time>2021-08-01T13:52:50Z</time>
      </trkpt>
      <trkpt lat="45.18519" lon="5.7539">
        <ele>216.214</ele>
        <time>2021-08-01T13:52:55Z</time>
      </trkpt>
    </trkseg>
  </trk>
</gpx>